Observation data for Earth on 08/09/2018      Previous  Date       Current Mesonet Observations  Soil Data  Daily Summary Page  Observations in Plain Language
KEA1 090500Z 21016KT 19/17 A302 RMK A01 T01940166  RH  084%=      5-min Rain = 0
KEA1 090501Z 20016KT 19/17 A302 RMK A01 T01920167  RH  085%=      5-min Rain = 0
KEA1 090502Z 21016KT 19/17 A302 RMK A01 T01910165  RH  085%=      5-min Rain = 0
KEA1 090503Z 21019KT 19/16 A302 RMK A01 T01900164  RH  085%=      5-min Rain = 0
KEA1 090504Z 21016KT 19/16 A302 RMK A01 T01890164  RH  085%=      5-min Rain = 0
KEA1 090505Z 21016KT 19/17 A302 RMK A01 T01900165  RH  085%=      5-min Rain = 0
KEA1 090506Z 21017G22KT 19/17 A302 RMK A01 T01900165  RH  085%=      5-min Rain = 0
KEA1 090507Z 21019KT 19/16 A3019 RMK A01 T01900164  RH  085%=      5-min Rain = 0
KEA1 090508Z 20019KT 19/16 A3019 RMK A01 T01900161  RH  083%=      5-min Rain = 0
KEA1 090509Z 20017KT 19/16 A3019 RMK A01 T01890161  RH  084%=      5-min Rain = 0
KEA1 090510Z 20016KT 19/16 A3019 RMK A01 T01870160  RH  084%=      5-min Rain = 0
KEA1 090511Z 19017G22KT 19/16 A3018 RMK A01 T01860160  RH  085%=      5-min Rain = 0
KEA1 090512Z 19018KT 19/16 A3018 RMK A01 T01850160  RH  085%=      5-min Rain = 0
KEA1 090513Z 20017KT 19/16 A3018 RMK A01 T01850161  RH  086%=      5-min Rain = 0
KEA1 090514Z 20015KT 19/16 A3018 RMK A01 T01850161  RH  086%=      5-min Rain = 0
KEA1 090515Z 20016KT 18/16 A3018 RMK A01 T01840161  RH  087%=      5-min Rain = 0
KEA1 090516Z 20013KT 18/16 A3018 RMK A01 T01840161  RH  087%=      5-min Rain = 0
KEA1 090517Z 20012KT 18/16 A3018 RMK A01 T01840162  RH  087%=      5-min Rain = 0
KEA1 090518Z 20011KT 18/16 A3019 RMK A01 T01840162  RH  087%=      5-min Rain = 0
KEA1 090519Z 21012KT 18/16 A3019 RMK A01 T01830161  RH  087%=      5-min Rain = 0
KEA1 090520Z 21013KT 18/16 A3019 RMK A01 T01830160  RH  086%=      5-min Rain = 0
KEA1 090521Z 21014KT 18/16 A3019 RMK A01 T01840159  RH  085%=      5-min Rain = 0
KEA1 090522Z 20011KT 19/16 A3019 RMK A01 T01850159  RH  085%=      5-min Rain = 0
KEA1 090523Z 20012KT 19/16 A3019 RMK A01 T01850160  RH  085%=      5-min Rain = 0
KEA1 090524Z 20014KT 19/16 A3019 RMK A01 T01850160  RH  085%=      5-min Rain = 0
KEA1 090525Z 20013KT 19/16 A3019 RMK A01 T01850159  RH  085%=      5-min Rain = 0
KEA1 090526Z 20013KT 19/16 A3019 RMK A01 T01850159  RH  085%=      5-min Rain = 0
KEA1 090527Z 20012KT 19/16 A3019 RMK A01 T01850159  RH  085%=      5-min Rain = 0
KEA1 090528Z 20013KT 19/16 A3019 RMK A01 T01850158  RH  084%=      5-min Rain = 0
KEA1 090529Z 20014KT 19/16 A3018 RMK A01 T01860156  RH  083%=      5-min Rain = 0
KEA1 090530Z 20012KT 19/16 A3018 RMK A01 T01860158  RH  084%=      5-min Rain = 0
KEA1 090531Z 20011KT 19/16 A3018 RMK A01 T01860157  RH  083%=      5-min Rain = 0
KEA1 090532Z 21012KT 19/16 A3018 RMK A01 T01860155  RH  083%=      5-min Rain = 0
KEA1 090533Z 20011KT 19/16 A3018 RMK A01 T01860155  RH  082%=      5-min Rain = 0
KEA1 090534Z 20011KT 19/16 A3018 RMK A01 T01860156  RH  082%=      5-min Rain = 0
KEA1 090535Z 20011KT 19/15 A3019 RMK A01 T01860154  RH  082%=      5-min Rain = 0
KEA1 090536Z 20011KT 19/16 A3019 RMK A01 T01860155  RH  082%=      5-min Rain = 0
KEA1 090537Z 21012KT 19/15 A3019 RMK A01 T01870154  RH  081%=      5-min Rain = 0
KEA1 090538Z 21012KT 19/15 A3019 RMK A01 T01870154  RH  081%=      5-min Rain = 0
KEA1 090539Z 21011KT 19/15 A3019 RMK A01 T01870153  RH  081%=      5-min Rain = 0
KEA1 090540Z 21012KT 19/15 A3019 RMK A01 T01880151  RH  079%=      5-min Rain = 0
KEA1 090541Z 21013KT 19/15 A3019 RMK A01 T01900148  RH  077%=      5-min Rain = 0
KEA1 090542Z 21015KT 19/15 A3019 RMK A01 T01930146  RH  074%=      5-min Rain = 0
KEA1 090543Z 22016KT 20/15 A3019 RMK A01 T01960146  RH  073%=      5-min Rain = 0
KEA1 090544Z 23013KT 20/15 A3019 RMK A01 T01990145  RH  071%=      5-min Rain = 0
KEA1 090545Z 25012KT 20/15 A302 RMK A01 T02010151  RH  073%=      5-min Rain = 0
KEA1 090546Z 25011KT 20/15 A302 RMK A01 T01980154  RH  076%=      5-min Rain = 0
KEA1 090547Z 25011KT 19/15 A302 RMK A01 T01930154  RH  078%=      5-min Rain = 0
KEA1 090548Z 25010KT 19/16 A302 RMK A01 T01910155  RH  079%=      5-min Rain = 0
KEA1 090549Z 24009KT 19/16 A302 RMK A01 T01900156  RH  081%=      5-min Rain = 0
KEA1 090550Z 22009KT 19/16 A302 RMK A01 T01880155  RH  081%=      5-min Rain = 0
KEA1 090551Z 21010KT 19/15 A302 RMK A01 T01880154  RH  081%=      5-min Rain = 0
KEA1 090552Z 20013G19KT 19/15 A3019 RMK A01 T01910149  RH  077%=      5-min Rain = 0
KEA1 090553Z 21012KT 19/15 A3019 RMK A01 T01940147  RH  074%=      5-min Rain = 0
KEA1 090554Z 20012KT 19/15 A3019 RMK A01 T01940149  RH  075%=      5-min Rain = 0
KEA1 090555Z 20011KT 19/15 A3019 RMK A01 T01920150  RH  076%=      5-min Rain = 0
KEA1 090556Z 20012KT 19/15 A3019 RMK A01 T01900151  RH  078%=      5-min Rain = 0
KEA1 090557Z 20012KT 19/15 A3018 RMK A01 T01890150  RH  078%=      5-min Rain = 0
KEA1 090558Z 20014KT 19/15 A3018 RMK A01 T01890149  RH  077%=      5-min Rain = 0
KEA1 090559Z 20012KT 19/15 A3018 RMK A01 T01890150  RH  078%=      5-min Rain = 0
KEA1 090600Z 19014KT 19/15 A3017 RMK A01 T01880150  RH  079%=      5-min Rain = 0
KEA1 090601Z 19014KT 19/15 A3017 RMK A01 T01870150  RH  079%=      5-min Rain = 0
KEA1 090602Z 19013KT 19/15 A3018 RMK A01 T01870149  RH  079%=      5-min Rain = 0
KEA1 090603Z 19009KT 19/15 A3018 RMK A01 T01870149  RH  079%=      5-min Rain = 0
KEA1 090604Z 19008KT 19/15 A3018 RMK A01 T01870150  RH  079%=      5-min Rain = 0
KEA1 090605Z 20008KT 19/15 A3018 RMK A01 T01870150  RH  079%=      5-min Rain = 0
KEA1 090606Z 19009KT 19/15 A3017 RMK A01 T01860150  RH  079%=      5-min Rain = 0
KEA1 090607Z 19011KT 19/15 A3017 RMK A01 T01860150  RH  080%=      5-min Rain = 0
KEA1 090608Z 18011KT 19/15 A3016 RMK A01 T01850151  RH  081%=      5-min Rain = 0
KEA1 090609Z 18014KT 19/15 A3016 RMK A01 T01850152  RH  081%=      5-min Rain = 0
KEA1 090610Z 17014KT 18/15 A3015 RMK A01 T01840152  RH  082%=      5-min Rain = 0
KEA1 090611Z 17014KT 18/15 A3015 RMK A01 T01830153  RH  083%=      5-min Rain = 0
KEA1 090612Z 17014KT 18/15 A3015 RMK A01 T01820154  RH  083%=      5-min Rain = 0
KEA1 090613Z 17013KT 18/15 A3014 RMK A01 T01820153  RH  083%=      5-min Rain = 0
KEA1 090614Z 17013KT 18/15 A3014 RMK A01 T01820153  RH  083%=      5-min Rain = 0
KEA1 090615Z 16013KT 18/15 A3014 RMK A01 T01820153  RH  083%=      5-min Rain = 0
KEA1 090616Z 16014KT 18/15 A3015 RMK A01 T01820152  RH  083%=      5-min Rain = 0
KEA1 090617Z 16013KT 18/15 A3015 RMK A01 T01820151  RH  082%=      5-min Rain = 0
KEA1 090618Z 17013KT 18/15 A3015 RMK A01 T01830152  RH  082%=      5-min Rain = 0
KEA1 090619Z 17012KT 18/15 A3015 RMK A01 T01830150  RH  081%=      5-min Rain = 0
KEA1 090620Z 17012KT 18/15 A3015 RMK A01 T01840150  RH  081%=      5-min Rain = 0
KEA1 090621Z 17010KT 18/15 A3016 RMK A01 T01840149  RH  080%=      5-min Rain = 0
KEA1 090622Z 17009KT 19/15 A3016 RMK A01 T01850149  RH  080%=      5-min Rain = 0
KEA1 090623Z 17008KT 19/15 A3016 RMK A01 T01860148  RH  079%=      5-min Rain = 0
KEA1 090624Z 17007KT 19/15 A3017 RMK A01 T01860148  RH  078%=      5-min Rain = 0
KEA1 090625Z 16007KT 19/15 A3017 RMK A01 T01870147  RH  078%=      5-min Rain = 0
KEA1 090626Z 16006KT 19/15 A3017 RMK A01 T01870146  RH  077%=      5-min Rain = 0
KEA1 090627Z 16006KT 19/15 A3017 RMK A01 T01880146  RH  076%=      5-min Rain = 0
KEA1 090628Z 17006KT 19/15 A3018 RMK A01 T01880145  RH  076%=      5-min Rain = 0
KEA1 090629Z 17006KT 19/15 A3018 RMK A01 T01890145  RH  075%=      5-min Rain = 0
KEA1 090630Z 18006KT 19/14 A3018 RMK A01 T01900144  RH  075%=      5-min Rain = 0
KEA1 090631Z 21005KT 19/14 A3018 RMK A01 T01900143  RH  074%=      5-min Rain = 0
KEA1 090632Z 24004KT 19/15 A3018 RMK A01 T01910145  RH  074%=      5-min Rain = 0
KEA1 090633Z 30005KT 19/15 A3018 RMK A01 T01910147  RH  075%=      5-min Rain = 0
KEA1 090634Z 33006KT 19/15 A3019 RMK A01 T01900149  RH  077%=      5-min Rain = 0
KEA1 090635Z 34006KT 19/15 A3019 RMK A01 T01880151  RH  079%=      5-min Rain = 0
KEA1 090636Z 34004KT 19/15 A3019 RMK A01 T01870152  RH  080%=      5-min Rain = 0
KEA1 090637Z 33005KT 19/15 A3019 RMK A01 T01860152  RH  081%=      5-min Rain = 0
KEA1 090638Z 32004KT 19/15 A3019 RMK A01 T01850152  RH  081%=      5-min Rain = 0
KEA1 090639Z 32004KT 19/15 A3018 RMK A01 T01850152  RH  081%=      5-min Rain = 0
KEA1 090640Z 32004KT 19/15 A3018 RMK A01 T01850152  RH  081%=      5-min Rain = 0
KEA1 090641Z 32004KT 19/15 A3018 RMK A01 T01850152  RH  081%=      5-min Rain = 0
KEA1 090642Z 31004KT 19/15 A3018 RMK A01 T01860152  RH  081%=      5-min Rain = 0
KEA1 090643Z 30004KT 19/15 A3019 RMK A01 T01860151  RH  080%=      5-min Rain = 0
KEA1 090644Z 26005KT 19/15 A3019 RMK A01 T01870149  RH  079%=      5-min Rain = 0
KEA1 090645Z 24003KT 19/15 A3018 RMK A01 T01880147  RH  077%=      5-min Rain = 0
KEA1 090646Z 22006KT 19/15 A3018 RMK A01 T01910147  RH  076%=      5-min Rain = 0
KEA1 090647Z 22007KT 19/15 A3018 RMK A01 T01920147  RH  075%=      5-min Rain = 0
KEA1 090648Z 22008KT 19/15 A3018 RMK A01 T01940148  RH  075%=      5-min Rain = 0
KEA1 090649Z 22008KT 19/15 A3018 RMK A01 T01940147  RH  074%=      5-min Rain = 0
KEA1 090650Z 21007KT 20/15 A3018 RMK A01 T01950149  RH  074%=      5-min Rain = 0
KEA1 090651Z 20007KT 20/15 A3018 RMK A01 T01960150  RH  074%=      5-min Rain = 0
KEA1 090652Z 19009KT 20/15 A3018 RMK A01 T01960147  RH  073%=      5-min Rain = 0
KEA1 090653Z 20009KT 20/14 A3018 RMK A01 T01950144  RH  072%=      5-min Rain = 0
KEA1 090654Z 19009KT 20/14 A3018 RMK A01 T01950144  RH  072%=      5-min Rain = 0
KEA1 090655Z 19009KT 19/15 A3018 RMK A01 T01940145  RH  073%=      5-min Rain = 0
KEA1 090656Z 19008KT 19/14 A3018 RMK A01 T01940144  RH  073%=      5-min Rain = 0
KEA1 090657Z 19008KT 19/14 A3018 RMK A01 T01940144  RH  073%=      5-min Rain = 0
KEA1 090658Z 19007KT 19/14 A3018 RMK A01 T01930144  RH  073%=      5-min Rain = 0
KEA1 090659Z 19006KT 19/15 A3018 RMK A01 T01930145  RH  074%=      5-min Rain = 0
KEA1 090700Z 20006KT 19/15 A3018 RMK A01 T01920146  RH  075%=      5-min Rain = 0
KEA1 090701Z 21006KT 19/15 A3017 RMK A01 T01910145  RH  075%=      5-min Rain = 0
KEA1 090702Z 21005KT 19/15 A3017 RMK A01 T01910146  RH  075%=      5-min Rain = 0
KEA1 090703Z 21006KT 19/15 A3017 RMK A01 T01910146  RH  075%=      5-min Rain = 0
KEA1 090704Z 20005KT 19/15 A3017 RMK A01 T01900146  RH  075%=      5-min Rain = 0
KEA1 090705Z 20005KT 19/15 A3017 RMK A01 T01910146  RH  075%=      5-min Rain = 0
KEA1 090706Z 19004KT 19/15 A3017 RMK A01 T01910146  RH  075%=      5-min Rain = 0
KEA1 090707Z 19004KT 19/15 A3018 RMK A01 T01910146  RH  075%=      5-min Rain = 0
KEA1 090708Z 18004KT 19/15 A3018 RMK A01 T01910146  RH  076%=      5-min Rain = 0
KEA1 090709Z 18004KT 19/15 A3018 RMK A01 T01900146  RH  076%=      5-min Rain = 0
KEA1 090710Z 18004KT 19/15 A3018 RMK A01 T01900145  RH  075%=      5-min Rain = 0
KEA1 090711Z 17004KT 19/15 A3018 RMK A01 T01900146  RH  076%=      5-min Rain = 0
KEA1 090712Z 17004KT 19/15 A3018 RMK A01 T01900148  RH  077%=      5-min Rain = 0
KEA1 090713Z 18005KT 19/15 A3018 RMK A01 T01890149  RH  078%=      5-min Rain = 0
KEA1 090714Z 19005KT 19/15 A3018 RMK A01 T01880148  RH  078%=      5-min Rain = 0
KEA1 090715Z 20004KT 19/15 A3018 RMK A01 T01870148  RH  078%=      5-min Rain = 0
KEA1 090716Z 21004KT 19/15 A3018 RMK A01 T01860149  RH  079%=      5-min Rain = 0
KEA1 090717Z 22004KT 19/15 A3018 RMK A01 T01860149  RH  079%=      5-min Rain = 0
KEA1 090718Z 23004KT 19/15 A3018 RMK A01 T01850148  RH  079%=      5-min Rain = 0
KEA1 090719Z 22004KT 19/15 A3018 RMK A01 T01860147  RH  078%=      5-min Rain = 0
KEA1 090720Z 21004KT 19/15 A3018 RMK A01 T01860148  RH  079%=      5-min Rain = 0
KEA1 090721Z 21003KT 19/15 A3018 RMK A01 T01870149  RH  079%=      5-min Rain = 0
KEA1 090722Z 19003KT 19/15 A3018 RMK A01 T01870149  RH  079%=      5-min Rain = 0
KEA1 090723Z 18004KT 19/15 A3018 RMK A01 T01870149  RH  079%=      5-min Rain = 0
KEA1 090724Z 18004KT 19/15 A3018 RMK A01 T01860150  RH  079%=      5-min Rain = 0
KEA1 090725Z 19005KT 19/15 A3018 RMK A01 T01860150  RH  079%=      5-min Rain = 0
KEA1 090726Z 19005KT 19/15 A3018 RMK A01 T01860150  RH  080%=      5-min Rain = 0
KEA1 090727Z 19005KT 19/15 A3018 RMK A01 T01860151  RH  080%=      5-min Rain = 0
KEA1 090728Z 19005KT 19/15 A3018 RMK A01 T01850150  RH  080%=      5-min Rain = 0
KEA1 090729Z 19006KT 19/15 A3018 RMK A01 T01860150  RH  079%=      5-min Rain = 0
KEA1 090730Z 19006KT 19/15 A3019 RMK A01 T01850150  RH  080%=      5-min Rain = 0
KEA1 090731Z 20006KT 19/15 A3019 RMK A01 T01850152  RH  081%=      5-min Rain = 0
KEA1 090732Z 20007KT 19/15 A3019 RMK A01 T01850151  RH  080%=      5-min Rain = 0
KEA1 090733Z 21007KT 19/15 A3019 RMK A01 T01850150  RH  080%=      5-min Rain = 0
KEA1 090734Z 21007KT 19/15 A3019 RMK A01 T01850149  RH  079%=      5-min Rain = 0
KEA1 090735Z 23006KT 19/15 A3019 RMK A01 T01860150  RH  079%=      5-min Rain = 0
KEA1 090736Z 25005KT 19/15 A3019 RMK A01 T01860150  RH  080%=      5-min Rain = 0
KEA1 090737Z 24003KT 19/15 A3019 RMK A01 T01870151  RH  080%=      5-min Rain = 0
KEA1 090738Z 25002KT 19/15 A3019 RMK A01 T01870153  RH  080%=      5-min Rain = 0
KEA1 090739Z 23001KT 19/15 A3019 RMK A01 T01870152  RH  080%=      5-min Rain = 0
KEA1 090740Z 21001KT 19/15 A3019 RMK A01 T01870153  RH  080%=      5-min Rain = 0
KEA1 090741Z 22002KT 19/15 A3019 RMK A01 T01870152  RH  080%=      5-min Rain = 0
KEA1 090742Z 23001KT 19/15 A3019 RMK A01 T01870152  RH  080%=      5-min Rain = 0
KEA1 090743Z 24002KT 19/15 A3019 RMK A01 T01870151  RH  080%=      5-min Rain = 0
KEA1 090744Z 33001KT 19/15 A302 RMK A01 T01880152  RH  080%=      5-min Rain = 0
KEA1 090745Z 32002KT 19/15 A302 RMK A01 T01880154  RH  081%=      5-min Rain = 0
KEA1 090746Z 02001KT 19/15 A302 RMK A01 T01870152  RH  080%=      5-min Rain = 0
KEA1 090747Z 03001KT 19/15 A302 RMK A01 T01860154  RH  082%=      5-min Rain = 0
KEA1 090748Z 05002KT 19/15 A302 RMK A01 T01850153  RH  082%=      5-min Rain = 0
KEA1 090749Z 06003KT 18/15 A302 RMK A01 T01840154  RH  083%=      5-min Rain = 0
KEA1 090750Z 06003KT 18/16 A302 RMK A01 T01830155  RH  083%=      5-min Rain = 0
KEA1 090751Z 06004KT 18/16 A302 RMK A01 T01820156  RH  085%=      5-min Rain = 0
KEA1 090752Z 06004KT 18/16 A302 RMK A01 T01810156  RH  085%=      5-min Rain = 0
KEA1 090753Z 06004KT 18/16 A302 RMK A01 T01800156  RH  086%=      5-min Rain = 0
KEA1 090754Z 07004KT 18/16 A302 RMK A01 T01790156  RH  086%=      5-min Rain = 0
KEA1 090755Z 08005KT 18/16 A302 RMK A01 T01790155  RH  086%=      5-min Rain = 0
KEA1 090756Z 08004KT 18/16 A302 RMK A01 T01780156  RH  087%=      5-min Rain = 0
KEA1 090757Z 09004KT 18/16 A302 RMK A01 T01780156  RH  087%=      5-min Rain = 0
KEA1 090758Z 09004KT 18/16 A302 RMK A01 T01780155  RH  086%=      5-min Rain = 0
KEA1 090759Z 10004KT 18/16 A302 RMK A01 T01780155  RH  086%=      5-min Rain = 0
KEA1 090800Z 10003KT 18/16 A302 RMK A01 T01790156  RH  086%=      5-min Rain = 0
KEA1 090801Z 11004KT 18/16 A302 RMK A01 T01790156  RH  087%=      5-min Rain = 0
KEA1 090802Z 11005KT 18/16 A302 RMK A01 T01790156  RH  087%=      5-min Rain = 0
KEA1 090803Z 11005KT 18/16 A3021 RMK A01 T01790156  RH  086%=      5-min Rain = 0
KEA1 090804Z 11005KT 18/16 A3021 RMK A01 T01790155  RH  086%=      5-min Rain = 0
KEA1 090805Z 12005KT 18/15 A3021 RMK A01 T01790154  RH  085%=      5-min Rain = 0
KEA1 090806Z 13004KT 18/15 A3021 RMK A01 T01790153  RH  085%=      5-min Rain = 0
KEA1 090807Z 14005KT 18/15 A3021 RMK A01 T01800153  RH  084%=      5-min Rain = 0
KEA1 090808Z 15005KT 18/15 A3021 RMK A01 T01800152  RH  084%=      5-min Rain = 0
KEA1 090809Z 15004KT 18/15 A3021 RMK A01 T01810152  RH  083%=      5-min Rain = 0
KEA1 090810Z 15005KT 18/15 A302 RMK A01 T01820150  RH  082%=      5-min Rain = 0
KEA1 090811Z 14004KT 18/15 A3021 RMK A01 T01830150  RH  081%=      5-min Rain = 0
KEA1 090812Z 13004KT 18/15 A3021 RMK A01 T01840150  RH  081%=      5-min Rain = 0
KEA1 090813Z 13005KT 18/15 A3021 RMK A01 T01840152  RH  081%=      5-min Rain = 0
KEA1 090814Z 13007KT 18/15 A3021 RMK A01 T01840151  RH  081%=      5-min Rain = 0
KEA1 090815Z 12006KT 18/15 A3021 RMK A01 T01840151  RH  081%=      5-min Rain = 0
KEA1 090816Z 12007KT 18/15 A3021 RMK A01 T01840151  RH  081%=      5-min Rain = 0
KEA1 090817Z 12006KT 18/15 A3021 RMK A01 T01840151  RH  081%=      5-min Rain = 0
KEA1 090818Z 12007KT 18/15 A3021 RMK A01 T01840152  RH  081%=      5-min Rain = 0
KEA1 090819Z 12007KT 18/15 A3021 RMK A01 T01840151  RH  081%=      5-min Rain = 0
KEA1 090820Z 12006KT 18/15 A3021 RMK A01 T01840150  RH  081%=      5-min Rain = 0
KEA1 090821Z 13007KT 18/15 A3021 RMK A01 T01840151  RH  081%=      5-min Rain = 0
KEA1 090822Z 13007KT 18/15 A3021 RMK A01 T01840151  RH  081%=      5-min Rain = 0
KEA1 090823Z 13007KT 18/15 A3021 RMK A01 T01840151  RH  081%=      5-min Rain = 0
KEA1 090824Z 13007KT 18/15 A3021 RMK A01 T01840152  RH  082%=      5-min Rain = 0
KEA1 090825Z 13008KT 18/15 A3021 RMK A01 T01830152  RH  082%=      5-min Rain = 0
KEA1 090826Z 13010KT 18/15 A302 RMK A01 T01830151  RH  082%=      5-min Rain = 0
KEA1 090827Z 13008KT 18/15 A302 RMK A01 T01830150  RH  081%=      5-min Rain = 0
KEA1 090828Z 14009KT 18/15 A302 RMK A01 T01830151  RH  081%=      5-min Rain = 0
KEA1 090829Z 14009KT 18/15 A302 RMK A01 T01830151  RH  081%=      5-min Rain = 0
KEA1 090830Z 14008KT 18/15 A302 RMK A01 T01830151  RH  081%=      5-min Rain = 0
KEA1 090831Z 14008KT 18/15 A302 RMK A01 T01830151  RH  081%=      5-min Rain = 0
KEA1 090832Z 14009KT 18/15 A302 RMK A01 T01830151  RH  081%=      5-min Rain = 0
KEA1 090833Z 14009KT 18/15 A302 RMK A01 T01830151  RH  081%=      5-min Rain = 0
KEA1 090834Z 14009KT 18/15 A302 RMK A01 T01830151  RH  081%=      5-min Rain = 0
KEA1 090835Z 14008KT 18/15 A302 RMK A01 T01830151  RH  081%=      5-min Rain = 0
KEA1 090836Z 14008KT 18/15 A302 RMK A01 T01830150  RH  081%=      5-min Rain = 0
KEA1 090837Z 14007KT 18/15 A302 RMK A01 T01830151  RH  081%=      5-min Rain = 0
KEA1 090838Z 14008KT 18/15 A302 RMK A01 T01830151  RH  081%=      5-min Rain = 0
KEA1 090839Z 13007KT 18/15 A3019 RMK A01 T01830151  RH  081%=      5-min Rain = 0
KEA1 090840Z 14007KT 18/15 A3019 RMK A01 T01830151  RH  082%=      5-min Rain = 0
KEA1 090841Z 13007KT 18/15 A3019 RMK A01 T01820151  RH  082%=      5-min Rain = 0
KEA1 090842Z 13007KT 18/15 A3019 RMK A01 T01820151  RH  082%=      5-min Rain = 0
KEA1 090843Z 14007KT 18/15 A3019 RMK A01 T01820151  RH  082%=      5-min Rain = 0
KEA1 090844Z 14007KT 18/15 A3019 RMK A01 T01820151  RH  082%=      5-min Rain = 0
KEA1 090845Z 14007KT 18/15 A3019 RMK A01 T01810151  RH  082%=      5-min Rain = 0
KEA1 090846Z 13006KT 18/15 A3019 RMK A01 T01810151  RH  082%=      5-min Rain = 0
KEA1 090847Z 14006KT 18/15 A3019 RMK A01 T01810151  RH  082%=      5-min Rain = 0
KEA1 090848Z 14006KT 18/15 A3019 RMK A01 T01810151  RH  083%=      5-min Rain = 0
KEA1 090849Z 14007KT 18/15 A3019 RMK A01 T01810151  RH  083%=      5-min Rain = 0
KEA1 090850Z 14007KT 18/15 A3019 RMK A01 T01800151  RH  083%=      5-min Rain = 0
KEA1 090851Z 14007KT 18/15 A3019 RMK A01 T01810151  RH  083%=      5-min Rain = 0
KEA1 090852Z 14006KT 18/15 A3019 RMK A01 T01800151  RH  083%=      5-min Rain = 0
KEA1 090853Z 15006KT 18/15 A3019 RMK A01 T01800151  RH  083%=      5-min Rain = 0
KEA1 090854Z 15005KT 18/15 A3019 RMK A01 T01800151  RH  083%=      5-min Rain = 0
KEA1 090855Z 14005KT 18/15 A3019 RMK A01 T01800151  RH  083%=      5-min Rain = 0
KEA1 090856Z 14006KT 18/15 A3019 RMK A01 T01790151  RH  084%=      5-min Rain = 0
KEA1 090857Z 14006KT 18/15 A3019 RMK A01 T01790152  RH  084%=      5-min Rain = 0
KEA1 090858Z 14006KT 18/15 A3019 RMK A01 T01790151  RH  084%=      5-min Rain = 0
KEA1 090859Z 14006KT 18/15 A3019 RMK A01 T01780152  RH  084%=      5-min Rain = 0
KEA1 090900Z 14006KT 18/15 A3019 RMK A01 T01780151  RH  085%=      5-min Rain = 0
KEA1 090901Z 14006KT 18/15 A3019 RMK A01 T01780152  RH  085%=      5-min Rain = 0
KEA1 090902Z 14006KT 18/15 A3019 RMK A01 T01780152  RH  085%=      5-min Rain = 0
KEA1 090903Z 14005KT 18/15 A3019 RMK A01 T01770152  RH  085%=      5-min Rain = 0
KEA1 090904Z 15005KT 18/15 A3018 RMK A01 T01770152  RH  085%=      5-min Rain = 0
KEA1 090905Z 15005KT 18/15 A3018 RMK A01 T01770152  RH  085%=      5-min Rain = 0
KEA1 090906Z 15004KT 18/15 A3018 RMK A01 T01770152  RH  085%=      5-min Rain = 0
KEA1 090907Z 15004KT 18/15 A3018 RMK A01 T01770152  RH  085%=      5-min Rain = 0
KEA1 090908Z 15005KT 18/15 A3018 RMK A01 T01760152  RH  085%=      5-min Rain = 0
KEA1 090909Z 15005KT 18/15 A3018 RMK A01 T01760152  RH  086%=      5-min Rain = 0
KEA1 090910Z 16004KT 18/15 A3018 RMK A01 T01750151  RH  086%=      5-min Rain = 0
KEA1 090911Z 16004KT 17/15 A3018 RMK A01 T01740151  RH  086%=      5-min Rain = 0
KEA1 090912Z 16004KT 17/15 A3018 RMK A01 T01740151  RH  086%=      5-min Rain = 0
KEA1 090913Z 16004KT 17/15 A3018 RMK A01 T01730151  RH  087%=      5-min Rain = 0
KEA1 090914Z 15004KT 17/15 A3018 RMK A01 T01730151  RH  087%=      5-min Rain = 0
KEA1 090915Z 15004KT 17/15 A3018 RMK A01 T01730151  RH  087%=      5-min Rain = 0
KEA1 090916Z 14005KT 17/15 A3018 RMK A01 T01730151  RH  087%=      5-min Rain = 0
KEA1 090917Z 14005KT 17/15 A3018 RMK A01 T01730151  RH  087%=      5-min Rain = 0
KEA1 090918Z 14006KT 17/15 A3018 RMK A01 T01730151  RH  087%=      5-min Rain = 0
KEA1 090919Z 14006KT 17/15 A3018 RMK A01 T01730151  RH  087%=      5-min Rain = 0
KEA1 090920Z 14005KT 17/15 A3018 RMK A01 T01720151  RH  087%=      5-min Rain = 0
KEA1 090921Z 14005KT 17/15 A3018 RMK A01 T01720151  RH  087%=      5-min Rain = 0
KEA1 090922Z 14006KT 17/15 A3018 RMK A01 T01720151  RH  088%=      5-min Rain = 0
KEA1 090923Z 15006KT 17/15 A3018 RMK A01 T01720151  RH  088%=      5-min Rain = 0
KEA1 090924Z 14006KT 17/15 A3018 RMK A01 T01720151  RH  088%=      5-min Rain = 0
KEA1 090925Z 14006KT 17/15 A3018 RMK A01 T01720151  RH  088%=      5-min Rain = 0
KEA1 090926Z 15006KT 17/15 A3018 RMK A01 T01720151  RH  088%=      5-min Rain = 0
KEA1 090927Z 15006KT 17/15 A3018 RMK A01 T01710151  RH  088%=      5-min Rain = 0
KEA1 090928Z 15006KT 17/15 A3018 RMK A01 T01710151  RH  088%=      5-min Rain = 0
KEA1 090929Z 15006KT 17/15 A3018 RMK A01 T01700150  RH  088%=      5-min Rain = 0
KEA1 090930Z 16006KT 17/15 A3018 RMK A01 T01700150  RH  088%=      5-min Rain = 0
KEA1 090931Z 16006KT 17/15 A3018 RMK A01 T01690150  RH  089%=      5-min Rain = 0
KEA1 090932Z 16005KT 17/15 A3018 RMK A01 T01690151  RH  089%=      5-min Rain = 0
KEA1 090933Z 16005KT 17/15 A3018 RMK A01 T01690150  RH  089%=      5-min Rain = 0
KEA1 090934Z 16006KT 17/15 A3018 RMK A01 T01690150  RH  089%=      5-min Rain = 0
KEA1 090935Z 16006KT 17/15 A3018 RMK A01 T01690151  RH  089%=      5-min Rain = 0
KEA1 090936Z 15006KT 17/15 A3018 RMK A01 T01690150  RH  089%=      5-min Rain = 0
KEA1 090937Z 15006KT 17/15 A3018 RMK A01 T01690150  RH  089%=      5-min Rain = 0
KEA1 090938Z 15006KT 17/15 A3018 RMK A01 T01690150  RH  089%=      5-min Rain = 0
KEA1 090939Z 16006KT 17/15 A3018 RMK A01 T01690150  RH  089%=      5-min Rain = 0
KEA1 090940Z 16006KT 17/15 A3018 RMK A01 T01680150  RH  089%=      5-min Rain = 0
KEA1 090941Z 16006KT 17/15 A3018 RMK A01 T01680149  RH  089%=      5-min Rain = 0
KEA1 090942Z 17006KT 17/15 A3018 RMK A01 T01680149  RH  089%=      5-min Rain = 0
KEA1 090943Z 17006KT 17/15 A3018 RMK A01 T01680149  RH  089%=      5-min Rain = 0
KEA1 090944Z 17006KT 17/15 A3018 RMK A01 T01680149  RH  089%=      5-min Rain = 0
KEA1 090945Z 18006KT 17/15 A3018 RMK A01 T01680149  RH  089%=      5-min Rain = 0
KEA1 090946Z 18006KT 17/15 A3018 RMK A01 T01680149  RH  088%=      5-min Rain = 0
KEA1 090947Z 18005KT 17/15 A3018 RMK A01 T01690149  RH  088%=      5-min Rain = 0
KEA1 090948Z 18005KT 17/15 A3018 RMK A01 T01700149  RH  088%=      5-min Rain = 0
KEA1 090949Z 18005KT 17/15 A3018 RMK A01 T01700149  RH  087%=      5-min Rain = 0
KEA1 090950Z 18005KT 17/15 A3018 RMK A01 T01710149  RH  087%=      5-min Rain = 0
KEA1 090951Z 18005KT 17/15 A3018 RMK A01 T01710149  RH  087%=      5-min Rain = 0
KEA1 090952Z 18005KT 17/15 A3018 RMK A01 T01720149  RH  086%=      5-min Rain = 0
KEA1 090953Z 18005KT 17/15 A3018 RMK A01 T01720149  RH  086%=      5-min Rain = 0
KEA1 090954Z 19005KT 17/15 A3018 RMK A01 T01730149  RH  085%=      5-min Rain = 0
KEA1 090955Z 19005KT 17/15 A3018 RMK A01 T01740148  RH  085%=      5-min Rain = 0
KEA1 090956Z 19005KT 18/15 A3018 RMK A01 T01750148  RH  085%=      5-min Rain = 0
KEA1 090957Z 19005KT 18/15 A3018 RMK A01 T01750148  RH  084%=      5-min Rain = 0
KEA1 090958Z 19006KT 18/15 A3018 RMK A01 T01760147  RH  083%=      5-min Rain = 0
KEA1 090959Z 20006KT 18/15 A3018 RMK A01 T01760146  RH  083%=      5-min Rain = 0
KEA1 091000Z 27005KT 18/15 A3018 RMK A01 T01770147  RH  082%=      5-min Rain = 0
KEA1 091001Z 29005KT 17/15 A3018 RMK A01 T01740147  RH  084%=      5-min Rain = 0
KEA1 091002Z 29004KT 17/15 A3018 RMK A01 T01710147  RH  086%=      5-min Rain = 0
KEA1 091003Z 29004KT 17/15 A3018 RMK A01 T01700148  RH  087%=      5-min Rain = 0
KEA1 091004Z 29003KT 17/15 A3018 RMK A01 T01690148  RH  087%=      5-min Rain = 0
KEA1 091005Z 28004KT 17/15 A3018 RMK A01 T01690148  RH  088%=      5-min Rain = 0
KEA1 091006Z 29005KT 17/15 A3018 RMK A01 T01690149  RH  088%=      5-min Rain = 0
KEA1 091007Z 29006KT 17/15 A3018 RMK A01 T01690149  RH  088%=      5-min Rain = 0
KEA1 091008Z 31008KT 17/15 A3018 RMK A01 T01690149  RH  088%=      5-min Rain = 0
KEA1 091009Z 31007KT 17/15 A3018 RMK A01 T01680150  RH  089%=      5-min Rain = 0
KEA1 091010Z 30008KT 17/15 A3018 RMK A01 T01680151  RH  090%=      5-min Rain = 0
KEA1 091011Z 30008KT 17/15 A3018 RMK A01 T01670151  RH  090%=      5-min Rain = 0
KEA1 091012Z 31007KT 17/15 A3018 RMK A01 T01670152  RH  090%=      5-min Rain = 0
KEA1 091013Z 31007KT 17/15 A3018 RMK A01 T01670151  RH  090%=      5-min Rain = 0
KEA1 091014Z 31007KT 17/15 A3018 RMK A01 T01660150  RH  090%=      5-min Rain = 0
KEA1 091015Z 31006KT 17/15 A3018 RMK A01 T01660150  RH  090%=      5-min Rain = 0
KEA1 091016Z 31006KT 17/15 A3018 RMK A01 T01660150  RH  091%=      5-min Rain = 0
KEA1 091017Z 31006KT 17/15 A3018 RMK A01 T01650150  RH  091%=      5-min Rain = 0
KEA1 091018Z 31006KT 17/15 A3018 RMK A01 T01650150  RH  091%=      5-min Rain = 0
KEA1 091019Z 31006KT 17/15 A3018 RMK A01 T01650149  RH  091%=      5-min Rain = 0
KEA1 091020Z 31006KT 16/15 A3018 RMK A01 T01640149  RH  091%=      5-min Rain = 0
KEA1 091021Z 31006KT 16/15 A3018 RMK A01 T01640149  RH  091%=      5-min Rain = 0
KEA1 091022Z 31006KT 16/15 A3018 RMK A01 T01630149  RH  091%=      5-min Rain = 0
KEA1 091023Z 31006KT 16/15 A3018 RMK A01 T01630149  RH  091%=      5-min Rain = 0
KEA1 091024Z 31006KT 16/15 A3018 RMK A01 T01630149  RH  091%=      5-min Rain = 0
KEA1 091025Z 31006KT 16/15 A3018 RMK A01 T01620148  RH  091%=      5-min Rain = 0
KEA1 091026Z 32006KT 16/15 A3018 RMK A01 T01630149  RH  092%=      5-min Rain = 0
KEA1 091027Z 32006KT 16/15 A3018 RMK A01 T01630149  RH  092%=      5-min Rain = 0
KEA1 091028Z 32006KT 16/15 A3018 RMK A01 T01630149  RH  092%=      5-min Rain = 0
KEA1 091029Z 32005KT 16/15 A3018 RMK A01 T01630149  RH  092%=      5-min Rain = 0
KEA1 091030Z 32005KT 16/15 A3018 RMK A01 T01620149  RH  092%=      5-min Rain = 0
KEA1 091031Z 32005KT 16/15 A3018 RMK A01 T01630149  RH  092%=      5-min Rain = 0
KEA1 091032Z 31005KT 16/15 A3018 RMK A01 T01620149  RH  092%=      5-min Rain = 0
KEA1 091033Z 31005KT 16/15 A3018 RMK A01 T01630149  RH  092%=      5-min Rain = 0
KEA1 091034Z 31005KT 16/15 A3018 RMK A01 T01630149  RH  092%=      5-min Rain = 0
KEA1 091035Z 31005KT 16/15 A3018 RMK A01 T01630149  RH  092%=      5-min Rain = 0
KEA1 091036Z 32005KT 16/15 A3018 RMK A01 T01630149  RH  092%=      5-min Rain = 0
KEA1 091037Z 32005KT 16/15 A3019 RMK A01 T01630149  RH  092%=      5-min Rain = 0
KEA1 091038Z 32005KT 16/15 A3019 RMK A01 T01630149  RH  092%=      5-min Rain = 0
KEA1 091039Z 32005KT 16/15 A3019 RMK A01 T01630149  RH  092%=      5-min Rain = 0
KEA1 091040Z 32005KT 16/15 A3019 RMK A01 T01620149  RH  092%=      5-min Rain = 0
KEA1 091041Z 33005KT 16/15 A3019 RMK A01 T01620149  RH  092%=      5-min Rain = 0
KEA1 091042Z 33005KT 16/15 A3019 RMK A01 T01620149  RH  092%=      5-min Rain = 0
KEA1 091043Z 33004KT 16/15 A3019 RMK A01 T01620149  RH  092%=      5-min Rain = 0
KEA1 091044Z 33004KT 16/15 A3019 RMK A01 T01620148  RH  092%=      5-min Rain = 0
KEA1 091045Z 33004KT 16/15 A3019 RMK A01 T01610148  RH  092%=      5-min Rain = 0
KEA1 091046Z 33004KT 16/15 A3019 RMK A01 T01610148  RH  092%=      5-min Rain = 0
KEA1 091047Z 33004KT 16/15 A3019 RMK A01 T01610148  RH  092%=      5-min Rain = 0
KEA1 091048Z 32004KT 16/15 A3019 RMK A01 T01600147  RH  092%=      5-min Rain = 0
KEA1 091049Z 33004KT 16/15 A3019 RMK A01 T01600147  RH  092%=      5-min Rain = 0
KEA1 091050Z 32003KT 16/15 A3019 RMK A01 T01600147  RH  092%=      5-min Rain = 0
KEA1 091051Z 32003KT 16/15 A3019 RMK A01 T01590147  RH  092%=      5-min Rain = 0
KEA1 091052Z 32004KT 16/15 A3019 RMK A01 T01590147  RH  093%=      5-min Rain = 0
KEA1 091053Z 32004KT 16/15 A3019 RMK A01 T01600148  RH  093%=      5-min Rain = 0
KEA1 091054Z 32003KT 16/15 A3019 RMK A01 T01610149  RH  093%=      5-min Rain = 0
KEA1 091055Z 32002KT 16/15 A3019 RMK A01 T01610148  RH  092%=      5-min Rain = 0
KEA1 091056Z 32001KT 16/15 A3019 RMK A01 T01600147  RH  092%=      5-min Rain = 0
KEA1 091057Z 29001KT 16/15 A3019 RMK A01 T01600146  RH  092%=      5-min Rain = 0
KEA1 091058Z 30003KT 16/15 A3019 RMK A01 T01590147  RH  092%=      5-min Rain = 0
KEA1 091059Z 29003KT 16/15 A3019 RMK A01 T01590148  RH  093%=      5-min Rain = 0
KEA1 091100Z 29002KT 16/15 A3019 RMK A01 T01600148  RH  093%=      5-min Rain = 0
KEA1 091101Z 29002KT 16/15 A3019 RMK A01 T01610148  RH  092%=      5-min Rain = 0
KEA1 091102Z 28003KT 16/15 A3019 RMK A01 T01610148  RH  092%=      5-min Rain = 0
KEA1 091103Z 27001KT 16/15 A3019 RMK A01 T01610148  RH  092%=      5-min Rain = 0
KEA1 091104Z 26000KT 16/15 A3019 RMK A01 T01610147  RH  092%=      5-min Rain = 0
KEA1 091105Z 20000KT 16/15 A3019 RMK A01 T01610147  RH  092%=      5-min Rain = 0
KEA1 091106Z 23001KT 16/15 A3019 RMK A01 T01620147  RH  091%=      5-min Rain = 0
KEA1 091107Z 26001KT 16/15 A3019 RMK A01 T01630147  RH  090%=      5-min Rain = 0
KEA1 091108Z 25001KT 17/15 A3019 RMK A01 T01650147  RH  089%=      5-min Rain = 0
KEA1 091109Z 29001KT 17/15 A3019 RMK A01 T01670147  RH  088%=      5-min Rain = 0
KEA1 091110Z 31002KT 17/15 A3019 RMK A01 T01690148  RH  087%=      5-min Rain = 0
KEA1 091111Z 31003KT 17/15 A3019 RMK A01 T01700147  RH  087%=      5-min Rain = 0
KEA1 091112Z 31004KT 17/15 A3019 RMK A01 T01690147  RH  086%=      5-min Rain = 0
KEA1 091113Z 30004KT 17/15 A3019 RMK A01 T01680146  RH  087%=      5-min Rain = 0
KEA1 091114Z 29004KT 17/15 A302 RMK A01 T01680147  RH  087%=      5-min Rain = 0
KEA1 091115Z 29004KT 17/15 A302 RMK A01 T01680147  RH  087%=      5-min Rain = 0
KEA1 091116Z 29005KT 17/15 A302 RMK A01 T01690147  RH  087%=      5-min Rain = 0
KEA1 091117Z 28005KT 17/15 A302 RMK A01 T01680147  RH  087%=      5-min Rain = 0
KEA1 091118Z 28005KT 17/15 A302 RMK A01 T01690147  RH  087%=      5-min Rain = 0
KEA1 091119Z 28005KT 17/15 A302 RMK A01 T01690148  RH  087%=      5-min Rain = 0
KEA1 091120Z 28005KT 17/15 A302 RMK A01 T01690148  RH  087%=      5-min Rain = 0
KEA1 091121Z 28005KT 17/15 A302 RMK A01 T01690148  RH  087%=      5-min Rain = 0
KEA1 091122Z 27005KT 17/15 A302 RMK A01 T01690148  RH  087%=      5-min Rain = 0
KEA1 091123Z 27006KT 17/15 A302 RMK A01 T01680148  RH  088%=      5-min Rain = 0
KEA1 091124Z 26006KT 17/15 A302 RMK A01 T01670147  RH  088%=      5-min Rain = 0
KEA1 091125Z 26005KT 17/15 A302 RMK A01 T01670148  RH  089%=      5-min Rain = 0
KEA1 091126Z 26005KT 17/15 A302 RMK A01 T01670149  RH  089%=      5-min Rain = 0
KEA1 091127Z 27005KT 17/15 A302 RMK A01 T01660149  RH  089%=      5-min Rain = 0
KEA1 091128Z 28006KT 17/15 A302 RMK A01 T01660149  RH  089%=      5-min Rain = 0
KEA1 091129Z 28006KT 17/15 A302 RMK A01 T01660149  RH  090%=      5-min Rain = 0
KEA1 091130Z 29006KT 17/15 A302 RMK A01 T01660149  RH  090%=      5-min Rain = 0
KEA1 091131Z 29005KT 17/15 A302 RMK A01 T01660149  RH  090%=      5-min Rain = 0
KEA1 091132Z 29005KT 17/15 A302 RMK A01 T01660149  RH  090%=      5-min Rain = 0
KEA1 091133Z 29005KT 17/15 A302 RMK A01 T01650149  RH  090%=      5-min Rain = 0
KEA1 091134Z 28005KT 17/15 A302 RMK A01 T01650149  RH  090%=      5-min Rain = 0
KEA1 091135Z 28005KT 17/15 A302 RMK A01 T01650149  RH  090%=      5-min Rain = 0
KEA1 091136Z 28004KT 17/15 A302 RMK A01 T01650150  RH  091%=      5-min Rain = 0
KEA1 091137Z 29005KT 17/15 A302 RMK A01 T01650150  RH  091%=      5-min Rain = 0
KEA1 091138Z 29005KT 17/15 A302 RMK A01 T01650150  RH  091%=      5-min Rain = 0
KEA1 091139Z 30005KT 17/15 A302 RMK A01 T01650150  RH  091%=      5-min Rain = 0
KEA1 091140Z 30005KT 17/15 A302 RMK A01 T01650150  RH  091%=      5-min Rain = 0
KEA1 091141Z 30005KT 17/15 A302 RMK A01 T01650150  RH  091%=      5-min Rain = 0
KEA1 091142Z 30005KT 17/15 A3019 RMK A01 T01650151  RH  091%=      5-min Rain = 0
KEA1 091143Z 30005KT 17/15 A3019 RMK A01 T01650151  RH  091%=      5-min Rain = 0
KEA1 091144Z 30005KT 17/15 A3019 RMK A01 T01660152  RH  091%=      5-min Rain = 0
KEA1 091145Z 30005KT 17/15 A3019 RMK A01 T01660152  RH  091%=      5-min Rain = 0
KEA1 091146Z 30005KT 17/15 A3019 RMK A01 T01660152  RH  091%=      5-min Rain = 0
KEA1 091147Z 30005KT 17/15 A3019 RMK A01 T01660152  RH  091%=      5-min Rain = 0
KEA1 091148Z 30005KT 17/15 A3019 RMK A01 T01660152  RH  091%=      5-min Rain = 0
KEA1 091149Z 30005KT 17/15 A3019 RMK A01 T01660152  RH  091%=      5-min Rain = 0
KEA1 091150Z 29005KT 17/15 A3019 RMK A01 T01650151  RH  092%=      5-min Rain = 0
KEA1 091151Z 30005KT 17/15 A3019 RMK A01 T01660152  RH  092%=      5-min Rain = 0
KEA1 091152Z 30005KT 17/15 A3019 RMK A01 T01650151  RH  092%=      5-min Rain = 0
KEA1 091153Z 30005KT 17/15 A3019 RMK A01 T01650151  RH  092%=      5-min Rain = 0
KEA1 091154Z 30006KT 17/15 A3019 RMK A01 T01650151  RH  092%=      5-min Rain = 0
KEA1 091155Z 30005KT 16/15 A3019 RMK A01 T01640151  RH  092%=      5-min Rain = 0
KEA1 091156Z 30005KT 16/15 A3019 RMK A01 T01640151  RH  092%=      5-min Rain = 0
KEA1 091157Z 30005KT 16/15 A3019 RMK A01 T01640151  RH  092%=      5-min Rain = 0
KEA1 091158Z 31004KT 16/15 A3019 RMK A01 T01640151  RH  092%=      5-min Rain = 0
KEA1 091159Z 30003KT 16/15 A3019 RMK A01 T01640151  RH  092%=      5-min Rain = 0
KEA1 091200Z 30003KT 16/15 A3019 RMK A01 T01640151  RH  092%=      5-min Rain = 0
KEA1 091201Z 30003KT 16/15 A3019 RMK A01 T01630151  RH  092%=      5-min Rain = 0
KEA1 091202Z 31003KT 16/15 A3019 RMK A01 T01630151  RH  092%=      5-min Rain = 0
KEA1 091203Z 31003KT 16/15 A3019 RMK A01 T01630151  RH  093%=      5-min Rain = 0
KEA1 091204Z 31003KT 16/15 A3019 RMK A01 T01630151  RH  093%=      5-min Rain = 0
KEA1 091205Z 30003KT 16/15 A3019 RMK A01 T01630151  RH  092%=      5-min Rain = 0
KEA1 091206Z 30004KT 16/15 A3019 RMK A01 T01640151  RH  092%=      5-min Rain = 0
KEA1 091207Z 30004KT 16/15 A3019 RMK A01 T01640151  RH  092%=      5-min Rain = 0
KEA1 091208Z 30003KT 17/15 A302 RMK A01 T01650152  RH  092%=      5-min Rain = 0
KEA1 091209Z 30002KT 17/15 A302 RMK A01 T01660152  RH  091%=      5-min Rain = 0
KEA1 091210Z 30003KT 17/15 A302 RMK A01 T01660151  RH  091%=      5-min Rain = 0
KEA1 091211Z 30003KT 17/15 A302 RMK A01 T01660151  RH  091%=      5-min Rain = 0
KEA1 091212Z 30003KT 17/15 A302 RMK A01 T01660151  RH  091%=      5-min Rain = 0
KEA1 091213Z 31004KT 17/15 A302 RMK A01 T01650151  RH  091%=      5-min Rain = 0
KEA1 091214Z 30005KT 17/15 A302 RMK A01 T01650151  RH  091%=      5-min Rain = 0
KEA1 091215Z 30004KT 16/15 A302 RMK A01 T01640151  RH  092%=      5-min Rain = 0
KEA1 091216Z 30005KT 16/15 A302 RMK A01 T01640150  RH  092%=      5-min Rain = 0
KEA1 091217Z 30005KT 16/15 A302 RMK A01 T01640151  RH  092%=      5-min Rain = 0
KEA1 091218Z 30005KT 16/15 A302 RMK A01 T01640151  RH  092%=      5-min Rain = 0
KEA1 091219Z 31005KT 16/15 A302 RMK A01 T01640151  RH  092%=      5-min Rain = 0
KEA1 091220Z 30004KT 16/15 A302 RMK A01 T01640151  RH  092%=      5-min Rain = 0
KEA1 091221Z 30005KT 16/15 A302 RMK A01 T01640151  RH  092%=      5-min Rain = 0
KEA1 091222Z 30006KT 16/15 A302 RMK A01 T01640151  RH  092%=      5-min Rain = 0
KEA1 091223Z 29005KT 17/15 A302 RMK A01 T01650152  RH  092%=      5-min Rain = 0
KEA1 091224Z 29005KT 17/15 A302 RMK A01 T01660153  RH  092%=      5-min Rain = 0
KEA1 091225Z 29005KT 17/15 A302 RMK A01 T01670153  RH  092%=      5-min Rain = 0
KEA1 091226Z 28005KT 17/15 A302 RMK A01 T01670153  RH  091%=      5-min Rain = 0
KEA1 091227Z 28006KT 17/15 A302 RMK A01 T01680153  RH  091%=      5-min Rain = 0
KEA1 091228Z 28006KT 17/15 A302 RMK A01 T01680153  RH  091%=      5-min Rain = 0
KEA1 091229Z 28007KT 17/15 A302 RMK A01 T01680152  RH  090%=      5-min Rain = 0
KEA1 091230Z 29007KT 17/15 A302 RMK A01 T01680152  RH  090%=      5-min Rain = 0
KEA1 091231Z 28007KT 17/15 A302 RMK A01 T01690152  RH  090%=      5-min Rain = 0
KEA1 091232Z 28007KT 17/15 A302 RMK A01 T01690153  RH  090%=      5-min Rain = 0
KEA1 091233Z 28007KT 17/15 A302 RMK A01 T01690153  RH  090%=      5-min Rain = 0
KEA1 091234Z 28007KT 17/15 A302 RMK A01 T01690154  RH  091%=      5-min Rain = 0
KEA1 091235Z 28007KT 17/15 A302 RMK A01 T01690154  RH  091%=      5-min Rain = 0
KEA1 091236Z 29007KT 17/15 A302 RMK A01 T01690154  RH  091%=      5-min Rain = 0
KEA1 091237Z 28007KT 17/15 A302 RMK A01 T01700154  RH  091%=      5-min Rain = 0
KEA1 091238Z 28006KT 17/15 A302 RMK A01 T01700154  RH  090%=      5-min Rain = 0
KEA1 091239Z 28006KT 17/15 A302 RMK A01 T01700154  RH  090%=      5-min Rain = 0
KEA1 091240Z 28006KT 17/15 A302 RMK A01 T01700154  RH  090%=      5-min Rain = 0
KEA1 091241Z 28006KT 17/15 A302 RMK A01 T01700153  RH  090%=      5-min Rain = 0
KEA1 091242Z 28006KT 17/15 A302 RMK A01 T01710153  RH  089%=      5-min Rain = 0
KEA1 091243Z 28005KT 17/15 A302 RMK A01 T01710154  RH  089%=      5-min Rain = 0
KEA1 091244Z 28006KT 17/15 A302 RMK A01 T01710154  RH  090%=      5-min Rain = 0
KEA1 091245Z 29006KT 17/15 A302 RMK A01 T01710154  RH  090%=      5-min Rain = 0
KEA1 091246Z 29005KT 17/15 A302 RMK A01 T01710154  RH  090%=      5-min Rain = 0
KEA1 091247Z 29006KT 17/15 A302 RMK A01 T01710154  RH  090%=      5-min Rain = 0
KEA1 091248Z 30006KT 17/15 A302 RMK A01 T01710154  RH  090%=      5-min Rain = 0
KEA1 091249Z 30006KT 17/16 A302 RMK A01 T01710155  RH  090%=      5-min Rain = 0
KEA1 091250Z 30006KT 17/16 A302 RMK A01 T01710155  RH  090%=      5-min Rain = 0
KEA1 091251Z 30005KT 17/16 A302 RMK A01 T01710155  RH  090%=      5-min Rain = 0
KEA1 091252Z 29005KT 17/16 A302 RMK A01 T01710155  RH  090%=      5-min Rain = 0
KEA1 091253Z 29005KT 17/16 A302 RMK A01 T01710155  RH  090%=      5-min Rain = 0
KEA1 091254Z 29005KT 17/16 A302 RMK A01 T01710155  RH  090%=      5-min Rain = 0
KEA1 091255Z 28005KT 17/16 A302 RMK A01 T01710155  RH  090%=      5-min Rain = 0
KEA1 091256Z 28005KT 17/16 A302 RMK A01 T01720155  RH  090%=      5-min Rain = 0
KEA1 091257Z 27005KT 17/16 A302 RMK A01 T01720156  RH  090%=      5-min Rain = 0
KEA1 091258Z 27006KT 17/16 A302 RMK A01 T01730156  RH  090%=      5-min Rain = 0
KEA1 091259Z 27006KT 17/16 A302 RMK A01 T01730156  RH  090%=      5-min Rain = 0
KEA1 091300Z 27006KT 17/16 A302 RMK A01 T01730156  RH  090%=      5-min Rain = 0
KEA1 091301Z 27006KT 17/16 A302 RMK A01 T01740156  RH  089%=      5-min Rain = 0
KEA1 091302Z 28006KT 17/16 A302 RMK A01 T01740156  RH  089%=      5-min Rain = 0
KEA1 091303Z 28006KT 17/16 A302 RMK A01 T01740156  RH  089%=      5-min Rain = 0
KEA1 091304Z 28006KT 18/16 A302 RMK A01 T01750156  RH  089%=      5-min Rain = 0
KEA1 091305Z 28006KT 18/16 A302 RMK A01 T01750156  RH  088%=      5-min Rain = 0
KEA1 091306Z 28006KT 18/16 A302 RMK A01 T01750156  RH  088%=      5-min Rain = 0
KEA1 091307Z 28006KT 18/16 A302 RMK A01 T01750155  RH  088%=      5-min Rain = 0
KEA1 091308Z 28006KT 18/16 A302 RMK A01 T01750156  RH  088%=      5-min Rain = 0
KEA1 091309Z 28006KT 18/16 A302 RMK A01 T01750156  RH  088%=      5-min Rain = 0
KEA1 091310Z 28006KT 18/16 A302 RMK A01 T01750155  RH  088%=      5-min Rain = 0
KEA1 091311Z 28006KT 18/16 A302 RMK A01 T01750156  RH  088%=      5-min Rain = 0
KEA1 091312Z 28005KT 18/16 A302 RMK A01 T01750156  RH  089%=      5-min Rain = 0
KEA1 091313Z 28005KT 18/16 A302 RMK A01 T01750156  RH  089%=      5-min Rain = 0
KEA1 091314Z 28005KT 18/16 A302 RMK A01 T01750156  RH  089%=      5-min Rain = 0
KEA1 091315Z 28006KT 18/16 A302 RMK A01 T01750157  RH  089%=      5-min Rain = 0
KEA1 091316Z 28005KT 18/16 A3021 RMK A01 T01750156  RH  089%=      5-min Rain = 0
KEA1 091317Z 28005KT 18/16 A3021 RMK A01 T01750156  RH  089%=      5-min Rain = 0
KEA1 091318Z 27005KT 18/16 A3021 RMK A01 T01750156  RH  089%=      5-min Rain = 0
KEA1 091319Z 27005KT 18/16 A3021 RMK A01 T01750157  RH  089%=      5-min Rain = 0
KEA1 091320Z 27005KT 18/16 A3021 RMK A01 T01750157  RH  089%=      5-min Rain = 0
KEA1 091321Z 27005KT 18/16 A3021 RMK A01 T01750157  RH  089%=      5-min Rain = 0
KEA1 091322Z 28005KT 18/16 A3021 RMK A01 T01760157  RH  089%=      5-min Rain = 0
KEA1 091323Z 28005KT 18/16 A3021 RMK A01 T01760157  RH  089%=      5-min Rain = 0
KEA1 091324Z 27005KT 18/16 A3021 RMK A01 T01760156  RH  088%=      5-min Rain = 0
KEA1 091325Z 27005KT 18/16 A3021 RMK A01 T01770157  RH  088%=      5-min Rain = 0
KEA1 091326Z 28005KT 18/16 A3021 RMK A01 T01780157  RH  087%=      5-min Rain = 0
KEA1 091327Z 28005KT 18/16 A3021 RMK A01 T01790157  RH  087%=      5-min Rain = 0
KEA1 091328Z 28005KT 18/16 A3021 RMK A01 T01800158  RH  087%=      5-min Rain = 0
KEA1 091329Z 27004KT 18/16 A3021 RMK A01 T01820158  RH  086%=      5-min Rain = 0
KEA1 091330Z 27006KT 18/16 A3021 RMK A01 T01830158  RH  085%=      5-min Rain = 0
KEA1 091331Z 27006KT 18/16 A3021 RMK A01 T01830156  RH  084%=      5-min Rain = 0
KEA1 091332Z 27005KT 18/16 A3021 RMK A01 T01830156  RH  084%=      5-min Rain = 0
KEA1 091333Z 27006KT 18/16 A3021 RMK A01 T01840157  RH  084%=      5-min Rain = 0
KEA1 091334Z 27006KT 18/16 A3021 RMK A01 T01840158  RH  084%=      5-min Rain = 0
KEA1 091335Z 27006KT 19/16 A3021 RMK A01 T01850158  RH  084%=      5-min Rain = 0
KEA1 091336Z 27005KT 19/16 A3021 RMK A01 T01850158  RH  084%=      5-min Rain = 0
KEA1 091337Z 27006KT 19/16 A3021 RMK A01 T01860158  RH  084%=      5-min Rain = 0
KEA1 091338Z 27006KT 19/16 A3021 RMK A01 T01860156  RH  083%=      5-min Rain = 0
KEA1 091339Z 27006KT 19/16 A3021 RMK A01 T01870157  RH  083%=      5-min Rain = 0
KEA1 091340Z 27006KT 19/16 A3021 RMK A01 T01880160  RH  084%=      5-min Rain = 0
KEA1 091341Z 27007KT 19/16 A3021 RMK A01 T01890158  RH  082%=      5-min Rain = 0
KEA1 091342Z 27007KT 19/16 A3021 RMK A01 T01890157  RH  082%=      5-min Rain = 0
KEA1 091343Z 26008KT 19/16 A3021 RMK A01 T01890155  RH  081%=      5-min Rain = 0
KEA1 091344Z 27007KT 19/16 A3021 RMK A01 T01890158  RH  082%=      5-min Rain = 0
KEA1 091345Z 27007KT 19/16 A3021 RMK A01 T01900159  RH  082%=      5-min Rain = 0
KEA1 091346Z 27008KT 19/16 A3021 RMK A01 T01910158  RH  081%=      5-min Rain = 0
KEA1 091347Z 27007KT 19/16 A3021 RMK A01 T01910157  RH  081%=      5-min Rain = 0
KEA1 091348Z 27006KT 19/16 A3021 RMK A01 T01910160  RH  082%=      5-min Rain = 0
KEA1 091349Z 27006KT 19/16 A3021 RMK A01 T01920160  RH  082%=      5-min Rain = 0
KEA1 091350Z 27005KT 19/16 A3021 RMK A01 T01930162  RH  082%=      5-min Rain = 0
KEA1 091351Z 27007KT 19/16 A3021 RMK A01 T01940161  RH  081%=      5-min Rain = 0
KEA1 091352Z 27006KT 20/16 A3021 RMK A01 T01950160  RH  080%=      5-min Rain = 0
KEA1 091353Z 27006KT 20/16 A3021 RMK A01 T01950161  RH  081%=      5-min Rain = 0
KEA1 091354Z 26005KT 20/16 A3021 RMK A01 T01960163  RH  081%=      5-min Rain = 0
KEA1 091355Z 27006KT 20/16 A3022 RMK A01 T01980164  RH  081%=      5-min Rain = 0
KEA1 091356Z 27006KT 20/16 A3022 RMK A01 T01980159  RH  078%=      5-min Rain = 0
KEA1 091357Z 27006KT 20/16 A3022 RMK A01 T01980162  RH  079%=      5-min Rain = 0
KEA1 091358Z 27007KT 20/16 A3022 RMK A01 T01990160  RH  078%=      5-min Rain = 0
KEA1 091359Z 26005KT 20/16 A3022 RMK A01 T01990160  RH  078%=      5-min Rain = 0
KEA1 091400Z 26006KT 20/16 A3022 RMK A01 T02000164  RH  079%=      5-min Rain = 0
KEA1 091401Z 27007KT 20/16 A3022 RMK A01 T02010162  RH  078%=      5-min Rain = 0
KEA1 091402Z 26006KT 20/16 A3022 RMK A01 T02010160  RH  077%=      5-min Rain = 0
KEA1 091403Z 26006KT 20/16 A3022 RMK A01 T02010161  RH  078%=      5-min Rain = 0
KEA1 091404Z 27007KT 20/16 A3022 RMK A01 T02020160  RH  077%=      5-min Rain = 0
KEA1 091405Z 26006KT 20/16 A3022 RMK A01 T02030159  RH  076%=      5-min Rain = 0
KEA1 091406Z 26005KT 20/16 A3022 RMK A01 T02040164  RH  078%=      5-min Rain = 0
KEA1 091407Z 26006KT 21/16 A3022 RMK A01 T02050162  RH  076%=      5-min Rain = 0
KEA1 091408Z 26007KT 21/16 A3022 RMK A01 T02060159  RH  075%=      5-min Rain = 0
KEA1 091409Z 26007KT 21/16 A3022 RMK A01 T02060160  RH  075%=      5-min Rain = 0
KEA1 091410Z 27007KT 21/16 A3022 RMK A01 T02060160  RH  075%=      5-min Rain = 0
KEA1 091411Z 27005KT 21/16 A3022 RMK A01 T02070161  RH  075%=      5-min Rain = 0
KEA1 091412Z 26006KT 21/16 A3022 RMK A01 T02090163  RH  075%=      5-min Rain = 0
KEA1 091413Z 26006KT 21/16 A3022 RMK A01 T02100158  RH  072%=      5-min Rain = 0
KEA1 091414Z 26006KT 21/16 A3022 RMK A01 T02100159  RH  073%=      5-min Rain = 0
KEA1 091415Z 26005KT 21/16 A3022 RMK A01 T02110160  RH  073%=      5-min Rain = 0
KEA1 091416Z 26005KT 21/16 A3022 RMK A01 T02110160  RH  072%=      5-min Rain = 0
KEA1 091417Z 26006KT 21/16 A3022 RMK A01 T02120160  RH  072%=      5-min Rain = 0
KEA1 091418Z 26007KT 21/16 A3022 RMK A01 T02120157  RH  071%=      5-min Rain = 0
KEA1 091419Z 27006KT 21/16 A3022 RMK A01 T02130157  RH  070%=      5-min Rain = 0
KEA1 091420Z 26006KT 21/16 A3022 RMK A01 T02130156  RH  070%=      5-min Rain = 0
KEA1 091421Z 25007KT 21/16 A3022 RMK A01 T02140155  RH  069%=      5-min Rain = 0
KEA1 091422Z 26006KT 21/15 A3022 RMK A01 T02140154  RH  069%=      5-min Rain = 0
KEA1 091423Z 26006KT 22/16 A3022 RMK A01 T02150156  RH  069%=      5-min Rain = 0
KEA1 091424Z 26006KT 22/15 A3022 RMK A01 T02150154  RH  068%=      5-min Rain = 0
KEA1 091425Z 26005KT 22/15 A3022 RMK A01 T02160154  RH  068%=      5-min Rain = 0
KEA1 091426Z 26005KT 22/16 A3022 RMK A01 T02160155  RH  068%=      5-min Rain = 0
KEA1 091427Z 26006KT 22/15 A3022 RMK A01 T02170153  RH  067%=      5-min Rain = 0
KEA1 091428Z 27007KT 22/15 A3022 RMK A01 T02170152  RH  066%=      5-min Rain = 0
KEA1 091429Z 27006KT 22/15 A3022 RMK A01 T02170152  RH  066%=      5-min Rain = 0
KEA1 091430Z 27006KT 22/15 A3022 RMK A01 T02180154  RH  067%=      5-min Rain = 0
KEA1 091431Z 27006KT 22/15 A3022 RMK A01 T02180154  RH  067%=      5-min Rain = 0
KEA1 091432Z 26006KT 22/16 A3022 RMK A01 T02190159  RH  069%=      5-min Rain = 0
KEA1 091433Z 26007KT 22/15 A3022 RMK A01 T02200153  RH  065%=      5-min Rain = 0
KEA1 091434Z 27006KT 22/15 A3022 RMK A01 T02200153  RH  066%=      5-min Rain = 0
KEA1 091435Z 25006KT 22/15 A3022 RMK A01 T02210153  RH  065%=      5-min Rain = 0
KEA1 091436Z 27006KT 22/15 A3022 RMK A01 T02210152  RH  065%=      5-min Rain = 0
KEA1 091437Z 28006KT 22/15 A3022 RMK A01 T02210153  RH  065%=      5-min Rain = 0
KEA1 091438Z 27005KT 22/15 A3022 RMK A01 T02210153  RH  065%=      5-min Rain = 0
KEA1 091439Z 27003KT 22/16 A3023 RMK A01 T02220157  RH  066%=      5-min Rain = 0
KEA1 091440Z 29004KT 22/15 A3023 RMK A01 T02240154  RH  065%=      5-min Rain = 0
KEA1 091441Z 27005KT 23/16 A3023 RMK A01 T02250159  RH  066%=      5-min Rain = 0
KEA1 091442Z 27005KT 23/16 A3023 RMK A01 T02280160  RH  065%=      5-min Rain = 0
KEA1 091443Z 27005KT 23/16 A3022 RMK A01 T02290157  RH  064%=      5-min Rain = 0
KEA1 091444Z 27005KT 23/16 A3022 RMK A01 T02280159  RH  065%=      5-min Rain = 0
KEA1 091445Z 26005KT 23/15 A3022 RMK A01 T02280154  RH  063%=      5-min Rain = 0
KEA1 091446Z 26005KT 23/15 A3022 RMK A01 T02260154  RH  064%=      5-min Rain = 0
KEA1 091447Z 28005KT 23/15 A3022 RMK A01 T02260154  RH  064%=      5-min Rain = 0
KEA1 091448Z 27005KT 23/16 A3022 RMK A01 T02250155  RH  064%=      5-min Rain = 0
KEA1 091449Z 26005KT 23/16 A3022 RMK A01 T02250157  RH  066%=      5-min Rain = 0
KEA1 091450Z 25005KT 23/15 A3022 RMK A01 T02250154  RH  064%=      5-min Rain = 0
KEA1 091451Z 26005KT 23/16 A3023 RMK A01 T02250155  RH  065%=      5-min Rain = 0
KEA1 091452Z 26006KT 23/15 A3023 RMK A01 T02250153  RH  064%=      5-min Rain = 0
KEA1 091453Z 27006KT 23/15 A3023 RMK A01 T02250153  RH  063%=      5-min Rain = 0
KEA1 091454Z 25005KT 23/15 A3023 RMK A01 T02260154  RH  064%=      5-min Rain = 0
KEA1 091455Z 26005KT 23/15 A3023 RMK A01 T02280154  RH  063%=      5-min Rain = 0
KEA1 091456Z 28005KT 23/16 A3023 RMK A01 T02290155  RH  063%=      5-min Rain = 0
KEA1 091457Z 28005KT 23/15 A3023 RMK A01 T02280152  RH  062%=      5-min Rain = 0
KEA1 091458Z 28004KT 23/15 A3023 RMK A01 T02280154  RH  063%=      5-min Rain = 0
KEA1 091459Z 29005KT 23/15 A3023 RMK A01 T02280154  RH  063%=      5-min Rain = 0
KEA1 091500Z 29004KT 23/16 A3023 RMK A01 T02290157  RH  064%=      5-min Rain = 0
KEA1 091501Z 28004KT 23/16 A3023 RMK A01 T02310157  RH  063%=      5-min Rain = 0
KEA1 091502Z 28004KT 23/16 A3023 RMK A01 T02320158  RH  063%=      5-min Rain = 0
KEA1 091503Z 28003KT 23/16 A3022 RMK A01 T02320156  RH  062%=      5-min Rain = 0
KEA1 091504Z 26005KT 23/16 A3022 RMK A01 T02320155  RH  062%=      5-min Rain = 0
KEA1 091505Z 26004KT 23/15 A3022 RMK A01 T02320151  RH  060%=      5-min Rain = 0
KEA1 091506Z 26003KT 23/15 A3022 RMK A01 T02330151  RH  060%=      5-min Rain = 0
KEA1 091507Z 28004KT 23/16 A3022 RMK A01 T02320155  RH  062%=      5-min Rain = 0
KEA1 091508Z 26004KT 23/15 A3022 RMK A01 T02340152  RH  060%=      5-min Rain = 0
KEA1 091509Z 25005KT 24/15 A3022 RMK A01 T02350149  RH  059%=      5-min Rain = 0
KEA1 091510Z 26004KT 23/15 A3022 RMK A01 T02330154  RH  061%=      5-min Rain = 0
KEA1 091511Z 26005KT 23/15 A3022 RMK A01 T02330152  RH  060%=      5-min Rain = 0
KEA1 091512Z 26004KT 23/15 A3022 RMK A01 T02330152  RH  060%=      5-min Rain = 0
KEA1 091513Z 25005KT 23/15 A3022 RMK A01 T02330154  RH  061%=      5-min Rain = 0
KEA1 091514Z 25004KT 23/16 A3022 RMK A01 T02340158  RH  062%=      5-min Rain = 0
KEA1 091515Z 27004KT 24/16 A3022 RMK A01 T02350158  RH  062%=      5-min Rain = 0
KEA1 091516Z 28005KT 24/15 A3022 RMK A01 T02360154  RH  060%=      5-min Rain = 0
KEA1 091517Z 29003KT 23/15 A3022 RMK A01 T02340150  RH  059%=      5-min Rain = 0
KEA1 091518Z 29003KT 23/16 A3022 RMK A01 T02330156  RH  062%=      5-min Rain = 0
KEA1 091519Z 29003KT 23/15 A3022 RMK A01 T02330154  RH  061%=      5-min Rain = 0
KEA1 091520Z 29002KT 23/15 A3022 RMK A01 T02330154  RH  061%=      5-min Rain = 0
KEA1 091521Z 27004KT 23/16 A3022 RMK A01 T02340157  RH  062%=      5-min Rain = 0
KEA1 091522Z 28005KT 24/15 A3022 RMK A01 T02350153  RH  060%=      5-min Rain = 0
KEA1 091523Z 28004KT 24/15 A3022 RMK A01 T02360152  RH  059%=      5-min Rain = 0
KEA1 091524Z 28005KT 24/16 A3022 RMK A01 T02360155  RH  060%=      5-min Rain = 0
KEA1 091525Z 26006KT 24/16 A3022 RMK A01 T02360156  RH  061%=      5-min Rain = 0
KEA1 091526Z 26004KT 24/15 A3022 RMK A01 T02370151  RH  058%=      5-min Rain = 0
KEA1 091527Z 26006KT 24/15 A3022 RMK A01 T02360151  RH  059%=      5-min Rain = 0
KEA1 091528Z 27005KT 24/15 A3022 RMK A01 T02380151  RH  058%=      5-min Rain = 0
KEA1 091529Z 27005KT 24/15 A3022 RMK A01 T02380147  RH  057%=      5-min Rain = 0
KEA1 091530Z 27005KT 24/15 A3022 RMK A01 T02380151  RH  058%=      5-min Rain = 0
KEA1 091531Z 24005KT 24/15 A3022 RMK A01 T02390154  RH  059%=      5-min Rain = 0
KEA1 091532Z 23005KT 24/16 A3022 RMK A01 T02420155  RH  058%=      5-min Rain = 0
KEA1 091533Z 23006KT 24/15 A3022 RMK A01 T02440153  RH  057%=      5-min Rain = 0
KEA1 091534Z 23006KT 24/15 A3022 RMK A01 T02430150  RH  056%=      5-min Rain = 0
KEA1 091535Z 23004KT 24/15 A3022 RMK A01 T02400148  RH  056%=      5-min Rain = 0
KEA1 091536Z 26006KT 24/15 A3022 RMK A01 T02390151  RH  058%=      5-min Rain = 0
KEA1 091537Z 25006KT 24/15 A3022 RMK A01 T02400148  RH  057%=      5-min Rain = 0
KEA1 091538Z 27005KT 24/15 A3022 RMK A01 T02400152  RH  058%=      5-min Rain = 0
KEA1 091539Z 25006KT 24/15 A3022 RMK A01 T02420151  RH  057%=      5-min Rain = 0
KEA1 091540Z 25004KT 24/15 A3022 RMK A01 T02420149  RH  056%=      5-min Rain = 0
KEA1 091541Z 27004KT 24/15 A3022 RMK A01 T02430154  RH  057%=      5-min Rain = 0
KEA1 091542Z 27004KT 24/15 A3022 RMK A01 T02440150  RH  056%=      5-min Rain = 0
KEA1 091543Z 24006KT 24/15 A3022 RMK A01 T02440151  RH  056%=      5-min Rain = 0
KEA1 091544Z 25005KT 24/15 A3022 RMK A01 T02440150  RH  056%=      5-min Rain = 0
KEA1 091545Z 24005KT 25/16 A3022 RMK A01 T02460156  RH  057%=      5-min Rain = 0
KEA1 091546Z 24006KT 25/15 A3022 RMK A01 T02490152  RH  055%=      5-min Rain = 0
KEA1 091547Z 23004KT 25/15 A3022 RMK A01 T02480150  RH  055%=      5-min Rain = 0
KEA1 091548Z 19005KT 25/15 A3022 RMK A01 T02480153  RH  056%=      5-min Rain = 0
KEA1 091549Z 19005KT 25/15 A3022 RMK A01 T02510149  RH  053%=      5-min Rain = 0
KEA1 091550Z 20004KT 25/15 A3022 RMK A01 T02510149  RH  053%=      5-min Rain = 0
KEA1 091551Z 24003KT 25/16 A3022 RMK A01 T02510155  RH  055%=      5-min Rain = 0
KEA1 091552Z 24003KT 25/15 A3022 RMK A01 T02520150  RH  053%=      5-min Rain = 0
KEA1 091553Z 21004KT 25/15 A3022 RMK A01 T02510151  RH  054%=      5-min Rain = 0
KEA1 091554Z 21004KT 25/15 A3022 RMK A01 T02510149  RH  053%=      5-min Rain = 0
KEA1 091555Z 21004KT 25/15 A3022 RMK A01 T02510147  RH  053%=      5-min Rain = 0
KEA1 091556Z 19004KT 25/15 A3022 RMK A01 T02510147  RH  052%=      5-min Rain = 0
KEA1 091557Z 18005KT 25/15 A3022 RMK A01 T02510152  RH  054%=      5-min Rain = 0
KEA1 091558Z 18006KT 25/15 A3022 RMK A01 T02540151  RH  053%=      5-min Rain = 0
KEA1 091559Z 20007KT 26/15 A3022 RMK A01 T02560150  RH  052%=      5-min Rain = 0
KEA1 091600Z 22006KT 26/15 A3022 RMK A01 T02570148  RH  051%=      5-min Rain = 0
KEA1 091601Z 23005KT 26/15 A3023 RMK A01 T02570145  RH  050%=      5-min Rain = 0
KEA1 091602Z 22004KT 26/15 A3023 RMK A01 T02560146  RH  051%=      5-min Rain = 0
KEA1 091603Z 21004KT 26/15 A3023 RMK A01 T02570145  RH  050%=      5-min Rain = 0
KEA1 091604Z 22004KT 26/15 A3023 RMK A01 T02580145  RH  050%=      5-min Rain = 0
KEA1 091605Z 20004KT 26/15 A3023 RMK A01 T02560146  RH  050%=      5-min Rain = 0
KEA1 091606Z 20005KT 26/15 A3023 RMK A01 T02560151  RH  052%=      5-min Rain = 0
KEA1 091607Z 20007KT 26/15 A3023 RMK A01 T02580151  RH  052%=      5-min Rain = 0
KEA1 091608Z 22006KT 26/15 A3023 RMK A01 T02590148  RH  050%=      5-min Rain = 0
KEA1 091609Z 20006KT 26/15 A3023 RMK A01 T02580148  RH  051%=      5-min Rain = 0
KEA1 091610Z 18003KT 26/14 A3023 RMK A01 T02580141  RH  049%=      5-min Rain = 0
KEA1 091611Z 21005KT 26/15 A3023 RMK A01 T02580148  RH  051%=      5-min Rain = 0
KEA1 091612Z 19006KT 26/15 A3023 RMK A01 T02590146  RH  049%=      5-min Rain = 0
KEA1 091613Z 20006KT 26/14 A3023 RMK A01 T02590142  RH  048%=      5-min Rain = 0
KEA1 091614Z 22005KT 26/14 A3023 RMK A01 T02580144  RH  049%=      5-min Rain = 0
KEA1 091615Z 23004KT 26/15 A3023 RMK A01 T02580147  RH  050%=      5-min Rain = 0
KEA1 091616Z 22003KT 26/15 A3023 RMK A01 T02580145  RH  049%=      5-min Rain = 0
KEA1 091617Z 20006KT 26/15 A3023 RMK A01 T02590147  RH  050%=      5-min Rain = 0
KEA1 091618Z 17005KT 26/15 A3023 RMK A01 T02600147  RH  050%=      5-min Rain = 0
KEA1 091619Z 18004KT 26/15 A3023 RMK A01 T02600146  RH  049%=      5-min Rain = 0
KEA1 091620Z 19004KT 26/15 A3023 RMK A01 T02580148  RH  051%=      5-min Rain = 0
KEA1 091621Z 19004KT 26/16 A3023 RMK A01 T02560156  RH  054%=      5-min Rain = 0
KEA1 091622Z 21008KT 26/15 A3023 RMK A01 T02590153  RH  052%=      5-min Rain = 0
KEA1 091623Z 19006KT 26/15 A3023 RMK A01 T02600151  RH  051%=      5-min Rain = 0
KEA1 091624Z 17005KT 26/15 A3023 RMK A01 T02610149  RH  050%=      5-min Rain = 0
KEA1 091625Z 18005KT 26/15 A3023 RMK A01 T02610148  RH  050%=      5-min Rain = 0
KEA1 091626Z 24004KT 26/15 A3023 RMK A01 T02600152  RH  051%=      5-min Rain = 0
KEA1 091627Z 20002KT 26/15 A3023 RMK A01 T02620153  RH  051%=      5-min Rain = 0
KEA1 091628Z 17005KT 26/15 A3023 RMK A01 T02640151  RH  050%=      5-min Rain = 0
KEA1 091629Z 18006KT 27/15 A3023 RMK A01 T02650150  RH  049%=      5-min Rain = 0
KEA1 091630Z 17004KT 27/15 A3023 RMK A01 T02650150  RH  049%=      5-min Rain = 0
KEA1 091631Z 20005KT 27/15 A3023 RMK A01 T02650148  RH  048%=      5-min Rain = 0
KEA1 091632Z 16005KT 26/15 A3023 RMK A01 T02640145  RH  048%=      5-min Rain = 0
KEA1 091633Z 15002KT 26/15 A3023 RMK A01 T02620145  RH  049%=      5-min Rain = 0
KEA1 091634Z 20005KT 26/14 A3023 RMK A01 T02630144  RH  048%=      5-min Rain = 0
KEA1 091635Z 20006KT 26/15 A3023 RMK A01 T02630148  RH  049%=      5-min Rain = 0
KEA1 091636Z 21007KT 27/15 A3023 RMK A01 T02650149  RH  049%=      5-min Rain = 0
KEA1 091637Z 22004KT 27/15 A3023 RMK A01 T02650146  RH  048%=      5-min Rain = 0
KEA1 091638Z 27001KT 26/15 A3023 RMK A01 T02630148  RH  049%=      5-min Rain = 0
KEA1 091639Z 19002G8KT 26/15 A3023 RMK A01 T02640151  RH  050%=      5-min Rain = 0
KEA1 091640Z 16006KT 27/15 A3023 RMK A01 T02670148  RH  048%=      5-min Rain = 0
KEA1 091641Z 16007KT 27/15 A3023 RMK A01 T02680148  RH  048%=      5-min Rain = 0
KEA1 091642Z 14005KT 27/15 A3023 RMK A01 T02670147  RH  048%=      5-min Rain = 0
KEA1 091643Z 15005KT 27/15 A3023 RMK A01 T02670148  RH  048%=      5-min Rain = 0
KEA1 091644Z 18008KT 27/15 A3023 RMK A01 T02680150  RH  048%=      5-min Rain = 0
KEA1 091645Z 17006KT 27/15 A3023 RMK A01 T02690148  RH  047%=      5-min Rain = 0
KEA1 091646Z 14003KT 27/15 A3023 RMK A01 T02670146  RH  047%=      5-min Rain = 0
KEA1 091647Z 18004KT 27/15 A3023 RMK A01 T02670152  RH  049%=      5-min Rain = 0
KEA1 091648Z 19006KT 27/15 A3023 RMK A01 T02700149  RH  047%=      5-min Rain = 0
KEA1 091649Z 18004KT 27/15 A3023 RMK A01 T02690148  RH  047%=      5-min Rain = 0
KEA1 091650Z 16002KT 27/14 A3023 RMK A01 T02680144  RH  047%=      5-min Rain = 0
KEA1 091651Z 20005KT 27/15 A3023 RMK A01 T02670146  RH  047%=      5-min Rain = 0
KEA1 091652Z 21003KT 27/14 A3023 RMK A01 T02660143  RH  047%=      5-min Rain = 0
KEA1 091653Z 22001KT 26/15 A3023 RMK A01 T02640147  RH  049%=      5-min Rain = 0
KEA1 091654Z 20009KT 27/15 A3023 RMK A01 T02660147  RH  048%=      5-min Rain = 0
KEA1 091655Z 20005KT 27/15 A3023 RMK A01 T02670145  RH  047%=      5-min Rain = 0
KEA1 091656Z 28002KT 27/14 A3023 RMK A01 T02660142  RH  046%=      5-min Rain = 0
KEA1 091657Z 15001KT 27/15 A3023 RMK A01 T02660149  RH  049%=      5-min Rain = 0
KEA1 091658Z 20006KT 27/15 A3023 RMK A01 T02680149  RH  048%=      5-min Rain = 0
KEA1 091659Z 18008KT 27/15 A3023 RMK A01 T02690151  RH  048%=      5-min Rain = 0
KEA1 091700Z 17008KT 27/15 A3023 RMK A01 T02700149  RH  048%=      5-min Rain = 0
KEA1 091701Z 18004KT 27/15 A3023 RMK A01 T02700146  RH  047%=      5-min Rain = 0
KEA1 091702Z 21007KT 27/15 A3023 RMK A01 T02680149  RH  048%=      5-min Rain = 0
KEA1 091703Z 19008KT 27/15 A3023 RMK A01 T02690150  RH  048%=      5-min Rain = 0
KEA1 091704Z 18004KT 27/15 A3023 RMK A01 T02690149  RH  048%=      5-min Rain = 0
KEA1 091705Z 20005KT 27/15 A3023 RMK A01 T02680149  RH  048%=      5-min Rain = 0
KEA1 091706Z 22006KT 27/15 A3023 RMK A01 T02680150  RH  048%=      5-min Rain = 0
KEA1 091707Z 22005G10KT 27/15 A3023 RMK A01 T02700151  RH  048%=      5-min Rain = 0
KEA1 091708Z 21008KT 27/16 A3022 RMK A01 T02730155  RH  048%=      5-min Rain = 0
KEA1 091709Z 18007KT 28/16 A3022 RMK A01 T02750155  RH  048%=      5-min Rain = 0
KEA1 091710Z 17007KT 28/16 A3022 RMK A01 T02770155  RH  047%=      5-min Rain = 0
KEA1 091711Z 19006KT 28/15 A3022 RMK A01 T02790153  RH  046%=      5-min Rain = 0
KEA1 091712Z 22003KT 28/15 A3022 RMK A01 T02750150  RH  046%=      5-min Rain = 0
KEA1 091713Z 22007KT 27/15 A3022 RMK A01 T02730154  RH  048%=      5-min Rain = 0
KEA1 091714Z 21005KT 27/15 A3022 RMK A01 T02740149  RH  046%=      5-min Rain = 0
KEA1 091715Z 19005KT 27/15 A3022 RMK A01 T02720151  RH  048%=      5-min Rain = 0
KEA1 091716Z 17008KT 27/15 A3022 RMK A01 T02720150  RH  047%=      5-min Rain = 0
KEA1 091717Z 16007KT 27/15 A3022 RMK A01 T02720151  RH  047%=      5-min Rain = 0
KEA1 091718Z 17005KT 27/15 A3022 RMK A01 T02710150  RH  047%=      5-min Rain = 0
KEA1 091719Z 15004KT 27/15 A3022 RMK A01 T02690152  RH  048%=      5-min Rain = 0
KEA1 091720Z 16008KT 27/15 A3022 RMK A01 T02710152  RH  048%=      5-min Rain = 0
KEA1 091721Z 16006KT 27/16 A3022 RMK A01 T02740155  RH  048%=      5-min Rain = 0
KEA1 091722Z 18009KT 28/15 A3022 RMK A01 T02770154  RH  047%=      5-min Rain = 0
KEA1 091723Z 19008KT 28/15 A3022 RMK A01 T02770153  RH  047%=      5-min Rain = 0
KEA1 091724Z 19005KT 28/15 A3022 RMK A01 T02760152  RH  047%=      5-min Rain = 0
KEA1 091725Z 19004KT 27/15 A3022 RMK A01 T02740151  RH  047%=      5-min Rain = 0
KEA1 091726Z 13004KT 27/16 A3022 RMK A01 T02740155  RH  048%=      5-min Rain = 0
KEA1 091727Z 16007KT 28/16 A3022 RMK A01 T02790159  RH  048%=      5-min Rain = 0
KEA1 091728Z 17009KT 28/15 A3022 RMK A01 T02830154  RH  045%=      5-min Rain = 0
KEA1 091729Z 15008KT 28/15 A3022 RMK A01 T02810152  RH  045%=      5-min Rain = 0
KEA1 091730Z 13008KT 28/16 A3022 RMK A01 T02800155  RH  046%=      5-min Rain = 0
KEA1 091731Z 14006KT 28/16 A3022 RMK A01 T02810155  RH  046%=      5-min Rain = 0
KEA1 091732Z 14008KT 28/16 A3022 RMK A01 T02830157  RH  046%=      5-min Rain = 0
KEA1 091733Z 17007KT 29/16 A3022 RMK A01 T02850159  RH  046%=      5-min Rain = 0
KEA1 091734Z 20008KT 29/16 A3022 RMK A01 T02880156  RH  045%=      5-min Rain = 0
KEA1 091735Z 20005KT 28/15 A3022 RMK A01 T02830151  RH  045%=      5-min Rain = 0
KEA1 091736Z 20002KT 28/15 A3022 RMK A01 T02790152  RH  046%=      5-min Rain = 0
KEA1 091737Z 20005G11KT 28/15 A3022 RMK A01 T02780154  RH  047%=      5-min Rain = 0
KEA1 091738Z 20007KT 28/15 A3022 RMK A01 T02790153  RH  046%=      5-min Rain = 0
KEA1 091739Z 22007KT 28/15 A3022 RMK A01 T02780152  RH  046%=      5-min Rain = 0
KEA1 091740Z 22006KT 28/16 A3022 RMK A01 T02770155  RH  048%=      5-min Rain = 0
KEA1 091741Z 16007KT 28/16 A3022 RMK A01 T02780157  RH  048%=      5-min Rain = 0
KEA1 091742Z 15010KT 28/16 A3021 RMK A01 T02820155  RH  046%=      5-min Rain = 0
KEA1 091743Z 17009KT 29/15 A3021 RMK A01 T02850154  RH  045%=      5-min Rain = 0
KEA1 091744Z 15006KT 28/16 A3021 RMK A01 T02840155  RH  046%=      5-min Rain = 0
KEA1 091745Z 12006KT 28/15 A3021 RMK A01 T02840154  RH  045%=      5-min Rain = 0
KEA1 091746Z 13010KT 29/16 A3021 RMK A01 T02850156  RH  046%=      5-min Rain = 0
KEA1 091747Z 15008KT 29/15 A3021 RMK A01 T02870154  RH  044%=      5-min Rain = 0
KEA1 091748Z 14006KT 29/15 A3021 RMK A01 T02880153  RH  044%=      5-min Rain = 0
KEA1 091749Z 12005KT 29/15 A3021 RMK A01 T02860152  RH  044%=      5-min Rain = 0
KEA1 091750Z 14005KT 28/15 A3021 RMK A01 T02830152  RH  045%=      5-min Rain = 0
KEA1 091751Z 17009KT 28/15 A3021 RMK A01 T02820153  RH  045%=      5-min Rain = 0
KEA1 091752Z 17011KT 28/15 A3021 RMK A01 T02830154  RH  045%=      5-min Rain = 0
KEA1 091753Z 18009KT 29/16 A3021 RMK A01 T02870155  RH  045%=      5-min Rain = 0
KEA1 091754Z 18011KT 29/16 A3021 RMK A01 T02880155  RH  044%=      5-min Rain = 0
KEA1 091755Z 17009KT 29/16 A3021 RMK A01 T02880155  RH  044%=      5-min Rain = 0
KEA1 091756Z 15008KT 29/16 A3021 RMK A01 T02880156  RH  045%=      5-min Rain = 0
KEA1 091757Z 15010KT 29/15 A3021 RMK A01 T02900154  RH  044%=      5-min Rain = 0
KEA1 091758Z 15006KT 29/15 A3021 RMK A01 T02860151  RH  044%=      5-min Rain = 0
KEA1 091759Z 14005KT 28/16 A3021 RMK A01 T02820155  RH  046%=      5-min Rain = 0
KEA1 091800Z 17011KT 28/15 A3021 RMK A01 T02830154  RH  045%=      5-min Rain = 0
KEA1 091801Z 18010KT 28/15 A3021 RMK A01 T02830153  RH  045%=      5-min Rain = 0
KEA1 091802Z 18010KT 28/15 A3021 RMK A01 T02800150  RH  045%=      5-min Rain = 0
KEA1 091803Z 19008KT 28/15 A3021 RMK A01 T02790153  RH  046%=      5-min Rain = 0
KEA1 091804Z 17009KT 28/15 A3021 RMK A01 T02780150  RH  046%=      5-min Rain = 0
KEA1 091805Z 16008KT 28/15 A3021 RMK A01 T02780152  RH  046%=      5-min Rain = 0
KEA1 091806Z 16010KT 28/15 A3021 RMK A01 T02800152  RH  046%=      5-min Rain = 0
KEA1 091807Z 16008KT 28/15 A3021 RMK A01 T02790150  RH  045%=      5-min Rain = 0
KEA1 091808Z 15006KT 28/15 A3021 RMK A01 T02760150  RH  046%=      5-min Rain = 0
KEA1 091809Z 17007KT 28/15 A3021 RMK A01 T02760151  RH  046%=      5-min Rain = 0
KEA1 091810Z 19007KT 28/15 A3021 RMK A01 T02760152  RH  047%=      5-min Rain = 0
KEA1 091811Z 17009KT 28/15 A3021 RMK A01 T02770151  RH  046%=      5-min Rain = 0
KEA1 091812Z 16007KT 28/15 A3021 RMK A01 T02770151  RH  046%=      5-min Rain = 0
KEA1 091813Z 15003KT 28/15 A3021 RMK A01 T02770149  RH  046%=      5-min Rain = 0
KEA1 091814Z 16001KT 28/15 A3021 RMK A01 T02760150  RH  046%=      5-min Rain = 0
KEA1 091815Z 14005G11KT 28/15 A3021 RMK A01 T02760152  RH  047%=      5-min Rain = 0
KEA1 091816Z 13011KT 28/15 A3021 RMK A01 T02780151  RH  046%=      5-min Rain = 0
KEA1 091817Z 13007KT 28/15 A3021 RMK A01 T02780150  RH  045%=      5-min Rain = 0
KEA1 091818Z 13008KT 28/15 A3021 RMK A01 T02780150  RH  046%=      5-min Rain = 0
KEA1 091819Z 14005KT 28/15 A3021 RMK A01 T02790153  RH  046%=      5-min Rain = 0
KEA1 091820Z 19007KT 28/15 A302 RMK A01 T02800151  RH  045%=      5-min Rain = 0
KEA1 091821Z 20008KT 28/15 A302 RMK A01 T02790150  RH  045%=      5-min Rain = 0
KEA1 091822Z 21009KT 28/15 A302 RMK A01 T02770148  RH  045%=      5-min Rain = 0
KEA1 091823Z 20007KT 28/15 A302 RMK A01 T02750147  RH  045%=      5-min Rain = 0
KEA1 091824Z 20005KT 27/15 A302 RMK A01 T02740148  RH  046%=      5-min Rain = 0
KEA1 091825Z 17008KT 28/15 A302 RMK A01 T02750148  RH  046%=      5-min Rain = 0
KEA1 091826Z 17007KT 28/15 A302 RMK A01 T02760149  RH  046%=      5-min Rain = 0
KEA1 091827Z 18007KT 28/15 A302 RMK A01 T02780150  RH  046%=      5-min Rain = 0
KEA1 091828Z 17007KT 28/15 A302 RMK A01 T02800149  RH  045%=      5-min Rain = 0
KEA1 091829Z 19008KT 28/15 A302 RMK A01 T02820151  RH  045%=      5-min Rain = 0
KEA1 091830Z 19007KT 28/15 A302 RMK A01 T02810151  RH  045%=      5-min Rain = 0
KEA1 091831Z 17005KT 28/15 A302 RMK A01 T02790151  RH  046%=      5-min Rain = 0
KEA1 091832Z 18006KT 28/15 A302 RMK A01 T02780148  RH  045%=      5-min Rain = 0
KEA1 091833Z 17007KT 28/15 A302 RMK A01 T02760151  RH  046%=      5-min Rain = 0
KEA1 091834Z 19008KT 28/15 A302 RMK A01 T02770150  RH  046%=      5-min Rain = 0
KEA1 091835Z 18005KT 28/15 A302 RMK A01 T02770152  RH  047%=      5-min Rain = 0
KEA1 091836Z 20008KT 28/15 A302 RMK A01 T02780153  RH  047%=      5-min Rain = 0
KEA1 091837Z 20006KT 28/15 A302 RMK A01 T02780153  RH  046%=      5-min Rain = 0
KEA1 091838Z 20006KT 28/16 A302 RMK A01 T02790156  RH  047%=      5-min Rain = 0
KEA1 091839Z 20007KT 28/16 A302 RMK A01 T02800155  RH  046%=      5-min Rain = 0
KEA1 091840Z 20010KT 28/16 A302 RMK A01 T02810156  RH  046%=      5-min Rain = 0
KEA1 091841Z 18009KT 28/16 A302 RMK A01 T02810155  RH  046%=      5-min Rain = 0
KEA1 091842Z 18008KT 28/15 A302 RMK A01 T02810154  RH  046%=      5-min Rain = 0
KEA1 091843Z 18005KT 28/15 A302 RMK A01 T02800154  RH  046%=      5-min Rain = 0
KEA1 091844Z 17004KT 28/15 A302 RMK A01 T02800154  RH  046%=      5-min Rain = 0
KEA1 091845Z 18007KT 28/16 A302 RMK A01 T02800155  RH  046%=      5-min Rain = 0
KEA1 091846Z 17008KT 28/16 A302 RMK A01 T02810157  RH  047%=      5-min Rain = 0
KEA1 091847Z 20007KT 28/16 A302 RMK A01 T02830157  RH  046%=      5-min Rain = 0
KEA1 091848Z 21005KT 28/16 A302 RMK A01 T02830156  RH  046%=      5-min Rain = 0
KEA1 091849Z 18008KT 28/16 A302 RMK A01 T02830160  RH  047%=      5-min Rain = 0
KEA1 091850Z 18011KT 29/16 A302 RMK A01 T02860160  RH  046%=      5-min Rain = 0
KEA1 091851Z 19007KT 29/16 A302 RMK A01 T02850157  RH  046%=      5-min Rain = 0
KEA1 091852Z 20006KT 28/16 A302 RMK A01 T02800158  RH  048%=      5-min Rain = 0
KEA1 091853Z 20004KT 28/16 A302 RMK A01 T02790156  RH  047%=      5-min Rain = 0
KEA1 091854Z 20005KT 28/16 A302 RMK A01 T02770157  RH  048%=      5-min Rain = 0
KEA1 091855Z 19008KT 28/15 A3019 RMK A01 T02770154  RH  047%=      5-min Rain = 0
KEA1 091856Z 19009KT 28/16 A3019 RMK A01 T02800155  RH  047%=      5-min Rain = 0
KEA1 091857Z 17009KT 28/15 A3019 RMK A01 T02820154  RH  046%=      5-min Rain = 0
KEA1 091858Z 15006KT 28/16 A3019 RMK A01 T02840158  RH  046%=      5-min Rain = 0
KEA1 091859Z 18008KT 29/16 A3019 RMK A01 T02880159  RH  046%=      5-min Rain = 0
KEA1 091900Z 20012KT 29/16 A3019 RMK A01 T02880162  RH  046%=      5-min Rain = 0
KEA1 091901Z 21009KT 28/16 A3019 RMK A01 T02830161  RH  048%=      5-min Rain = 0
KEA1 091902Z 21008KT 28/16 A3019 RMK A01 T02800162  RH  049%=      5-min Rain = 0
KEA1 091903Z 19010KT 28/16 A3019 RMK A01 T02800162  RH  049%=      5-min Rain = 0
KEA1 091904Z 19007KT 28/16 A3019 RMK A01 T02790161  RH  049%=      5-min Rain = 0
KEA1 091905Z 19007KT 28/16 A3019 RMK A01 T02770163  RH  050%=      5-min Rain = 0
KEA1 091906Z 21009KT 28/17 A3019 RMK A01 T02810165  RH  049%=      5-min Rain = 0
KEA1 091907Z 20010KT 28/16 A3019 RMK A01 T02840164  RH  048%=      5-min Rain = 0
KEA1 091908Z 19010KT 28/16 A3019 RMK A01 T02840163  RH  048%=      5-min Rain = 0
KEA1 091909Z 19009KT 28/16 A3019 RMK A01 T02800163  RH  049%=      5-min Rain = 0
KEA1 091910Z 19011KT 28/16 A3019 RMK A01 T02810164  RH  049%=      5-min Rain = 0
KEA1 091911Z 19006G11KT 28/16 A3019 RMK A01 T02810161  RH  048%=      5-min Rain = 0
KEA1 091912Z 20008KT 28/16 A3019 RMK A01 T02790163  RH  049%=      5-min Rain = 0
KEA1 091913Z 20009KT 28/16 A3019 RMK A01 T02780162  RH  049%=      5-min Rain = 0
KEA1 091914Z 20007KT 28/16 A3019 RMK A01 T02790163  RH  049%=      5-min Rain = 0
KEA1 091915Z 20003KT 28/16 A3019 RMK A01 T02790161  RH  049%=      5-min Rain = 0
KEA1 091916Z 21006KT 28/16 A3019 RMK A01 T02790162  RH  049%=      5-min Rain = 0
KEA1 091917Z 19008KT 28/16 A3019 RMK A01 T02800162  RH  049%=      5-min Rain = 0
KEA1 091918Z 20008KT 28/16 A3019 RMK A01 T02810161  RH  048%=      5-min Rain = 0
KEA1 091919Z 20008KT 28/16 A3019 RMK A01 T02810164  RH  049%=      5-min Rain = 0
KEA1 091920Z 20013KT 28/16 A3018 RMK A01 T02830163  RH  048%=      5-min Rain = 0
KEA1 091921Z 20012KT 28/16 A3019 RMK A01 T02820161  RH  048%=      5-min Rain = 0
KEA1 091922Z 20009KT 28/16 A3019 RMK A01 T02800162  RH  049%=      5-min Rain = 0
KEA1 091923Z 21006KT 28/16 A3019 RMK A01 T02800160  RH  048%=      5-min Rain = 0
KEA1 091924Z 20007KT 28/16 A3019 RMK A01 T02800161  RH  048%=      5-min Rain = 0
KEA1 091925Z 19006KT 28/16 A3019 RMK A01 T02810160  RH  048%=      5-min Rain = 0
KEA1 091926Z 19005KT 28/16 A3019 RMK A01 T02810161  RH  048%=      5-min Rain = 0
KEA1 091927Z 19008KT 28/16 A3019 RMK A01 T02810161  RH  048%=      5-min Rain = 0
KEA1 091928Z 19010KT 28/16 A3018 RMK A01 T02810161  RH  048%=      5-min Rain = 0
KEA1 091929Z 19008KT 28/16 A3018 RMK A01 T02790161  RH  048%=      5-min Rain = 0
KEA1 091930Z 21010KT 28/16 A3018 RMK A01 T02770161  RH  049%=      5-min Rain = 0
KEA1 091931Z 20008KT 28/16 A3018 RMK A01 T02770160  RH  049%=      5-min Rain = 0
KEA1 091932Z 19011KT 28/16 A3018 RMK A01 T02760160  RH  049%=      5-min Rain = 0
KEA1 091933Z 17010KT 28/16 A3018 RMK A01 T02770159  RH  049%=      5-min Rain = 0
KEA1 091934Z 18009KT 28/16 A3018 RMK A01 T02800161  RH  048%=      5-min Rain = 0
KEA1 091935Z 18006KT 28/16 A3018 RMK A01 T02820160  RH  048%=      5-min Rain = 0
KEA1 091936Z 18005KT 28/16 A3019 RMK A01 T02810160  RH  048%=      5-min Rain = 0
KEA1 091937Z 18003KT 28/16 A3018 RMK A01 T02800158  RH  048%=      5-min Rain = 0
KEA1 091938Z 20007KT 28/16 A3019 RMK A01 T02810162  RH  048%=      5-min Rain = 0
KEA1 091939Z 20010KT 28/16 A3018 RMK A01 T02830158  RH  047%=      5-min Rain = 0
KEA1 091940Z 22008KT 28/16 A3018 RMK A01 T02840159  RH  047%=      5-min Rain = 0
KEA1 091941Z 20009KT 29/16 A3018 RMK A01 T02850161  RH  047%=      5-min Rain = 0
KEA1 091942Z 18011KT 29/16 A3018 RMK A01 T02880160  RH  046%=      5-min Rain = 0
KEA1 091943Z 20009KT 29/16 A3018 RMK A01 T02890159  RH  045%=      5-min Rain = 0
KEA1 091944Z 19007KT 29/16 A3018 RMK A01 T02860158  RH  046%=      5-min Rain = 0
KEA1 091945Z 19005G10KT 29/16 A3018 RMK A01 T02850157  RH  046%=      5-min Rain = 0
KEA1 091946Z 18007KT 28/16 A3018 RMK A01 T02840158  RH  046%=      5-min Rain = 0
KEA1 091947Z 14007KT 29/16 A3018 RMK A01 T02850160  RH  047%=      5-min Rain = 0
KEA1 091948Z 18011KT 29/16 A3018 RMK A01 T02900162  RH  046%=      5-min Rain = 0
KEA1 091949Z 16012KT 29/16 A3018 RMK A01 T02940161  RH  045%=      5-min Rain = 0
KEA1 091950Z 17011KT 30/16 A3018 RMK A01 T02960161  RH  044%=      5-min Rain = 0
KEA1 091951Z 17011KT 30/16 A3018 RMK A01 T02960160  RH  044%=      5-min Rain = 0
KEA1 091952Z 17009KT 30/16 A3018 RMK A01 T02950157  RH  043%=      5-min Rain = 0
KEA1 091953Z 17007KT 29/16 A3018 RMK A01 T02910157  RH  044%=      5-min Rain = 0
KEA1 091954Z 17006KT 29/16 A3018 RMK A01 T02890157  RH  045%=      5-min Rain = 0
KEA1 091955Z 16005KT 29/16 A3018 RMK A01 T02880157  RH  045%=      5-min Rain = 0
KEA1 091956Z 18005KT 29/16 A3018 RMK A01 T02870157  RH  045%=      5-min Rain = 0
KEA1 091957Z 19009KT 29/16 A3018 RMK A01 T02860158  RH  046%=      5-min Rain = 0
KEA1 091958Z 18010KT 29/16 A3018 RMK A01 T02860159  RH  046%=      5-min Rain = 0
KEA1 091959Z 17009KT 29/16 A3018 RMK A01 T02890159  RH  045%=      5-min Rain = 0
KEA1 092000Z 17011KT 29/16 A3018 RMK A01 T02920159  RH  044%=      5-min Rain = 0
KEA1 092001Z 14007KT 29/16 A3018 RMK A01 T02920158  RH  044%=      5-min Rain = 0
KEA1 092002Z 12005KT 29/16 A3018 RMK A01 T02910158  RH  044%=      5-min Rain = 0
KEA1 092003Z 16007KT 29/16 A3018 RMK A01 T02900161  RH  046%=      5-min Rain = 0
KEA1 092004Z 16008KT 29/16 A3018 RMK A01 T02920159  RH  044%=      5-min Rain = 0
KEA1 092005Z 18008KT 29/16 A3018 RMK A01 T02920160  RH  045%=      5-min Rain = 0
KEA1 092006Z 19009KT 29/16 A3018 RMK A01 T02940159  RH  044%=      5-min Rain = 0
KEA1 092007Z 21004KT 29/16 A3018 RMK A01 T02930155  RH  043%=      5-min Rain = 0
KEA1 092008Z 20009KT 29/16 A3018 RMK A01 T02870156  RH  045%=      5-min Rain = 0
KEA1 092009Z 21007KT 28/16 A3018 RMK A01 T02830156  RH  046%=      5-min Rain = 0
KEA1 092010Z 20009KT 28/16 A3018 RMK A01 T02810158  RH  047%=      5-min Rain = 0
KEA1 092011Z 18009KT 28/16 A3018 RMK A01 T02800157  RH  047%=      5-min Rain = 0
KEA1 092012Z 15007KT 28/16 A3018 RMK A01 T02810159  RH  048%=      5-min Rain = 0
KEA1 092013Z 15007KT 28/16 A3018 RMK A01 T02840160  RH  047%=      5-min Rain = 0
KEA1 092014Z 15006KT 29/16 A3018 RMK A01 T02860158  RH  046%=      5-min Rain = 0
KEA1 092015Z 15006KT 29/16 A3018 RMK A01 T02860159  RH  046%=      5-min Rain = 0
KEA1 092016Z 16005KT 29/16 A3017 RMK A01 T02880157  RH  045%=      5-min Rain = 0
KEA1 092017Z 22001KT 29/16 A3017 RMK A01 T02880156  RH  045%=      5-min Rain = 0
KEA1 092018Z 23004KT 29/16 A3017 RMK A01 T02910158  RH  045%=      5-min Rain = 0
KEA1 092019Z 22007KT 29/16 A3017 RMK A01 T02920159  RH  044%=      5-min Rain = 0
KEA1 092020Z 19006KT 29/16 A3017 RMK A01 T02930157  RH  044%=      5-min Rain = 0
KEA1 092021Z 17004KT 29/16 A3017 RMK A01 T02910156  RH  044%=      5-min Rain = 0
KEA1 092022Z 21006KT 29/16 A3017 RMK A01 T02900158  RH  045%=      5-min Rain = 0
KEA1 092023Z 21007KT 30/16 A3017 RMK A01 T02950159  RH  044%=      5-min Rain = 0
KEA1 092024Z 22005KT 30/16 A3017 RMK A01 T02950156  RH  043%=      5-min Rain = 0
KEA1 092025Z 22007KT 29/16 A3017 RMK A01 T02910155  RH  044%=      5-min Rain = 0
KEA1 092026Z 21004KT 29/15 A3017 RMK A01 T02880152  RH  044%=      5-min Rain = 0
KEA1 092027Z 21004KT 29/15 A3017 RMK A01 T02860154  RH  045%=      5-min Rain = 0
KEA1 092028Z 21008KT 29/16 A3017 RMK A01 T02860159  RH  046%=      5-min Rain = 0
KEA1 092029Z 21005KT 29/16 A3017 RMK A01 T02890156  RH  044%=      5-min Rain = 0
KEA1 092030Z 23005KT 29/16 A3017 RMK A01 T02880157  RH  045%=      5-min Rain = 0
KEA1 092031Z 23005KT 29/16 A3017 RMK A01 T02880157  RH  045%=      5-min Rain = 0
KEA1 092032Z 25003KT 29/16 A3017 RMK A01 T02890155  RH  044%=      5-min Rain = 0
KEA1 092033Z 17010KT 29/16 A3017 RMK A01 T02890156  RH  045%=      5-min Rain = 0
KEA1 092034Z 16007KT 29/16 A3017 RMK A01 T02890157  RH  045%=      5-min Rain = 0
KEA1 092035Z 17009KT 29/16 A3017 RMK A01 T02910157  RH  044%=      5-min Rain = 0
KEA1 092036Z 18007KT 29/16 A3017 RMK A01 T02910155  RH  044%=      5-min Rain = 0
KEA1 092037Z 20007KT 29/16 A3017 RMK A01 T02890156  RH  044%=      5-min Rain = 0
KEA1 092038Z 19009KT 29/16 A3016 RMK A01 T02880156  RH  045%=      5-min Rain = 0
KEA1 092039Z 18008KT 29/16 A3016 RMK A01 T02910156  RH  044%=      5-min Rain = 0
KEA1 092040Z 19008KT 30/16 A3016 RMK A01 T02950157  RH  043%=      5-min Rain = 0
KEA1 092041Z 16006KT 30/16 A3016 RMK A01 T02960158  RH  043%=      5-min Rain = 0
KEA1 092042Z 17005KT 30/16 A3016 RMK A01 T02970156  RH  042%=      5-min Rain = 0
KEA1 092043Z 17005KT 30/16 A3016 RMK A01 T02950157  RH  043%=      5-min Rain = 0
KEA1 092044Z 19004KT 29/16 A3016 RMK A01 T02940156  RH  043%=      5-min Rain = 0
KEA1 092045Z 19009KT 29/16 A3016 RMK A01 T02940157  RH  043%=      5-min Rain = 0
KEA1 092046Z 19009KT 30/16 A3016 RMK A01 T02960156  RH  043%=      5-min Rain = 0
KEA1 092047Z 19009KT 30/16 A3016 RMK A01 T02960157  RH  043%=      5-min Rain = 0
KEA1 092048Z 18007KT 30/16 A3016 RMK A01 T02950156  RH  043%=      5-min Rain = 0
KEA1 092049Z 20007KT 30/16 A3016 RMK A01 T02950158  RH  044%=      5-min Rain = 0
KEA1 092050Z 20007KT 30/15 A3016 RMK A01 T02960154  RH  042%=      5-min Rain = 0
KEA1 092051Z 19005KT 29/15 A3016 RMK A01 T02930154  RH  043%=      5-min Rain = 0
KEA1 092052Z 22003KT 29/15 A3016 RMK A01 T02900153  RH  043%=      5-min Rain = 0
KEA1 092053Z 22003KT 29/16 A3016 RMK A01 T02900155  RH  044%=      5-min Rain = 0
KEA1 092054Z 22001KT 29/15 A3016 RMK A01 T02900152  RH  043%=      5-min Rain = 0
KEA1 092055Z 19003KT 29/15 A3016 RMK A01 T02910154  RH  043%=      5-min Rain = 0
KEA1 092056Z 21006KT 29/16 A3016 RMK A01 T02930156  RH  043%=      5-min Rain = 0
KEA1 092057Z 22004KT 30/16 A3016 RMK A01 T02950155  RH  043%=      5-min Rain = 0
KEA1 092058Z 20005KT 30/16 A3016 RMK A01 T02950155  RH  043%=      5-min Rain = 0
KEA1 092059Z 22006KT 30/16 A3016 RMK A01 T02950157  RH  043%=      5-min Rain = 0
KEA1 092100Z 21006KT 30/16 A3016 RMK A01 T02950156  RH  043%=      5-min Rain = 0
KEA1 092101Z 21007KT 30/16 A3016 RMK A01 T02950156  RH  043%=      5-min Rain = 0
KEA1 092102Z 21007KT 30/16 A3016 RMK A01 T02950155  RH  043%=      5-min Rain = 0
KEA1 092103Z 22006KT 29/15 A3016 RMK A01 T02920153  RH  043%=      5-min Rain = 0
KEA1 092104Z 20004KT 29/15 A3016 RMK A01 T02890152  RH  044%=      5-min Rain = 0
KEA1 092105Z 15005KT 29/15 A3016 RMK A01 T02860153  RH  044%=      5-min Rain = 0
KEA1 092106Z 14009KT 29/15 A3016 RMK A01 T02880153  RH  044%=      5-min Rain = 0
KEA1 092107Z 14006KT 29/15 A3016 RMK A01 T02910152  RH  043%=      5-min Rain = 0
KEA1 092108Z 17005KT 29/15 A3016 RMK A01 T02910151  RH  043%=      5-min Rain = 0
KEA1 092109Z 16003KT 29/15 A3016 RMK A01 T02910151  RH  043%=      5-min Rain = 0
KEA1 092110Z 17003KT 29/15 A3016 RMK A01 T02900151  RH  043%=      5-min Rain = 0
KEA1 092111Z 18006KT 29/15 A3016 RMK A01 T02900151  RH  043%=      5-min Rain = 0
KEA1 092112Z 18005KT 29/15 A3016 RMK A01 T02910149  RH  042%=      5-min Rain = 0
KEA1 092113Z 17004KT 29/15 A3016 RMK A01 T02910148  RH  042%=      5-min Rain = 0
KEA1 092114Z 17004KT 29/15 A3016 RMK A01 T02910151  RH  042%=      5-min Rain = 0
KEA1 092115Z 17003KT 29/15 A3016 RMK A01 T02930146  RH  041%=      5-min Rain = 0
KEA1 092116Z 22001KT 29/15 A3016 RMK A01 T02920147  RH  041%=      5-min Rain = 0
KEA1 092117Z 23002KT 29/15 A3015 RMK A01 T02920147  RH  041%=      5-min Rain = 0
KEA1 092118Z 20002KT 29/15 A3015 RMK A01 T02920146  RH  041%=      5-min Rain = 0
KEA1 092119Z 17005KT 29/15 A3015 RMK A01 T02920153  RH  043%=      5-min Rain = 0
KEA1 092120Z 15005KT 30/15 A3015 RMK A01 T02960154  RH  042%=      5-min Rain = 0
KEA1 092121Z 16008KT 30/16 A3015 RMK A01 T02960155  RH  042%=      5-min Rain = 0
KEA1 092122Z 16009KT 30/15 A3015 RMK A01 T02970154  RH  042%=      5-min Rain = 0
KEA1 092123Z 17006KT 30/15 A3015 RMK A01 T02960151  RH  041%=      5-min Rain = 0
KEA1 092124Z 18005KT 29/15 A3015 RMK A01 T02940153  RH  042%=      5-min Rain = 0
KEA1 092125Z 19004KT 29/15 A3015 RMK A01 T02940151  RH  042%=      5-min Rain = 0
KEA1 092126Z 20004KT 29/15 A3015 RMK A01 T02940151  RH  042%=      5-min Rain = 0
KEA1 092127Z 21003KT 29/15 A3015 RMK A01 T02930149  RH  041%=      5-min Rain = 0
KEA1 092128Z 19002KT 29/15 A3015 RMK A01 T02930151  RH  042%=      5-min Rain = 0
KEA1 092129Z 26002KT 29/15 A3015 RMK A01 T02940154  RH  043%=      5-min Rain = 0
KEA1 092130Z 23003KT 30/15 A3015 RMK A01 T02970153  RH  042%=      5-min Rain = 0
KEA1 092131Z 22004KT 30/15 A3015 RMK A01 T02970152  RH  041%=      5-min Rain = 0
KEA1 092132Z 24003KT 30/15 A3015 RMK A01 T02960150  RH  041%=      5-min Rain = 0
KEA1 092133Z 21004KT 29/15 A3015 RMK A01 T02940149  RH  041%=      5-min Rain = 0
KEA1 092134Z 20004KT 29/15 A3015 RMK A01 T02930150  RH  042%=      5-min Rain = 0
KEA1 092135Z 24004KT 30/15 A3015 RMK A01 T02950153  RH  042%=      5-min Rain = 0
KEA1 092136Z 19007KT 30/15 A3015 RMK A01 T02980153  RH  041%=      5-min Rain = 0
KEA1 092137Z 19006KT 30/15 A3015 RMK A01 T03000150  RH  040%=      5-min Rain = 0
KEA1 092138Z 20005KT 30/15 A3015 RMK A01 T02980151  RH  041%=      5-min Rain = 0
KEA1 092139Z 17004KT 30/15 A3015 RMK A01 T02970153  RH  042%=      5-min Rain = 0
KEA1 092140Z 20003KT 30/15 A3015 RMK A01 T02980150  RH  041%=      5-min Rain = 0
KEA1 092141Z 27001KT 30/15 A3015 RMK A01 T02980152  RH  041%=      5-min Rain = 0
KEA1 092142Z 10002KT 30/16 A3014 RMK A01 T02990156  RH  042%=      5-min Rain = 0
KEA1 092143Z 17006KT 30/15 A3014 RMK A01 T03030153  RH  040%=      5-min Rain = 0
KEA1 092144Z 15006KT 31/15 A3014 RMK A01 T03060150  RH  039%=      5-min Rain = 0
KEA1 092145Z 14007G12KT 31/15 A3014 RMK A01 T03050151  RH  039%=      5-min Rain = 0
KEA1 092146Z 14007KT 30/15 A3014 RMK A01 T03040152  RH  040%=      5-min Rain = 0
KEA1 092147Z 15006KT 30/15 A3014 RMK A01 T03040150  RH  039%=      5-min Rain = 0
KEA1 092148Z 16006KT 30/15 A3014 RMK A01 T03030149  RH  039%=      5-min Rain = 0
KEA1 092149Z 15006KT 30/15 A3014 RMK A01 T03000149  RH  040%=      5-min Rain = 0
KEA1 092150Z 19007KT 30/15 A3014 RMK A01 T03000150  RH  040%=      5-min Rain = 0
KEA1 092151Z 21008KT 30/15 A3014 RMK A01 T03020149  RH  040%=      5-min Rain = 0
KEA1 092152Z 21009KT 30/15 A3014 RMK A01 T02990147  RH  040%=      5-min Rain = 0
KEA1 092153Z 22011KT 30/15 A3013 RMK A01 T02980151  RH  041%=      5-min Rain = 0
KEA1 092154Z 21006KT 30/15 A3014 RMK A01 T03020150  RH  040%=      5-min Rain = 0
KEA1 092155Z 22005KT 30/15 A3014 RMK A01 T03020149  RH  039%=      5-min Rain = 0
KEA1 092156Z 24005KT 30/15 A3014 RMK A01 T02990149  RH  040%=      5-min Rain = 0
KEA1 092157Z 25005KT 30/15 A3013 RMK A01 T02980148  RH  040%=      5-min Rain = 0
KEA1 092158Z 21009G14KT 30/15 A3013 RMK A01 T02980149  RH  040%=      5-min Rain = 0
KEA1 092159Z 18009KT 30/15 A3013 RMK A01 T02990150  RH  040%=      5-min Rain = 0
KEA1 092200Z 19010KT 30/15 A3013 RMK A01 T03030151  RH  040%=      5-min Rain = 0
KEA1 092201Z 20009KT 30/15 A3013 RMK A01 T03040150  RH  039%=      5-min Rain = 0
KEA1 092202Z 18009KT 30/15 A3013 RMK A01 T03020149  RH  039%=      5-min Rain = 0
KEA1 092203Z 20005KT 30/15 A3013 RMK A01 T02990149  RH  040%=      5-min Rain = 0
KEA1 092204Z 22003KT 30/15 A3013 RMK A01 T02980148  RH  040%=      5-min Rain = 0
KEA1 092205Z 19005KT 30/15 A3013 RMK A01 T02970149  RH  040%=      5-min Rain = 0
KEA1 092206Z 18008KT 30/15 A3013 RMK A01 T02990151  RH  041%=      5-min Rain = 0
KEA1 092207Z 17005KT 30/15 A3013 RMK A01 T03010152  RH  041%=      5-min Rain = 0
KEA1 092208Z 18005KT 31/16 A3013 RMK A01 T03050156  RH  041%=      5-min Rain = 0
KEA1 092209Z 20010KT 31/15 A3013 RMK A01 T03060152  RH  039%=      5-min Rain = 0
KEA1 092210Z 20011KT 31/15 A3013 RMK A01 T03050151  RH  039%=      5-min Rain = 0
KEA1 092211Z 21006KT 30/15 A3013 RMK A01 T03020150  RH  040%=      5-min Rain = 0
KEA1 092212Z 21005KT 30/15 A3013 RMK A01 T02990150  RH  040%=      5-min Rain = 0
KEA1 092213Z 19006KT 30/15 A3013 RMK A01 T02990152  RH  041%=      5-min Rain = 0
KEA1 092214Z 17009KT 30/15 A3013 RMK A01 T03000150  RH  040%=      5-min Rain = 0
KEA1 092215Z 17009KT 30/15 A3013 RMK A01 T02990150  RH  040%=      5-min Rain = 0
KEA1 092216Z 16006KT 30/15 A3013 RMK A01 T02980150  RH  041%=      5-min Rain = 0
KEA1 092217Z 20006KT 30/15 A3013 RMK A01 T02980152  RH  041%=      5-min Rain = 0
KEA1 092218Z 20006KT 30/15 A3013 RMK A01 T03000152  RH  041%=      5-min Rain = 0
KEA1 092219Z 19006KT 30/15 A3013 RMK A01 T03000149  RH  040%=      5-min Rain = 0
KEA1 092220Z 20008KT 30/15 A3013 RMK A01 T02980150  RH  041%=      5-min Rain = 0
KEA1 092221Z 22012KT 30/15 A3013 RMK A01 T02980154  RH  042%=      5-min Rain = 0
KEA1 092222Z 21010KT 30/15 A3013 RMK A01 T02990152  RH  041%=      5-min Rain = 0
KEA1 092223Z 20008KT 30/15 A3013 RMK A01 T02980150  RH  040%=      5-min Rain = 0
KEA1 092224Z 19005KT 30/15 A3013 RMK A01 T02970151  RH  041%=      5-min Rain = 0
KEA1 092225Z 19006G12KT 30/15 A3013 RMK A01 T02970154  RH  042%=      5-min Rain = 0
KEA1 092226Z 22009KT 30/15 A3013 RMK A01 T02990152  RH  041%=      5-min Rain = 0
KEA1 092227Z 20010KT 30/15 A3013 RMK A01 T02990152  RH  041%=      5-min Rain = 0
KEA1 092228Z 21008KT 30/15 A3013 RMK A01 T02980151  RH  041%=      5-min Rain = 0
KEA1 092229Z 19007KT 30/15 A3013 RMK A01 T02970151  RH  041%=      5-min Rain = 0
KEA1 092230Z 19008KT 30/15 A3012 RMK A01 T02970153  RH  042%=      5-min Rain = 0
KEA1 092231Z 19010KT 30/15 A3012 RMK A01 T03010152  RH  041%=      5-min Rain = 0
KEA1 092232Z 19010KT 30/15 A3013 RMK A01 T03030153  RH  040%=      5-min Rain = 0
KEA1 092233Z 18008KT 30/15 A3013 RMK A01 T03020151  RH  040%=      5-min Rain = 0
KEA1 092234Z 19009KT 30/15 A3013 RMK A01 T02990150  RH  040%=      5-min Rain = 0
KEA1 092235Z 20009KT 30/15 A3012 RMK A01 T02970152  RH  041%=      5-min Rain = 0
KEA1 092236Z 20007KT 30/15 A3012 RMK A01 T02960152  RH  041%=      5-min Rain = 0
KEA1 092237Z 21007KT 30/15 A3012 RMK A01 T02960151  RH  041%=      5-min Rain = 0
KEA1 092238Z 20007KT 30/15 A3012 RMK A01 T02950151  RH  042%=      5-min Rain = 0
KEA1 092239Z 21006KT 29/15 A3012 RMK A01 T02940152  RH  042%=      5-min Rain = 0
KEA1 092240Z 21005KT 29/15 A3012 RMK A01 T02930150  RH  042%=      5-min Rain = 0
KEA1 092241Z 20004KT 29/15 A3012 RMK A01 T02920150  RH  042%=      5-min Rain = 0
KEA1 092242Z 19009KT 29/15 A3012 RMK A01 T02920152  RH  043%=      5-min Rain = 0
KEA1 092243Z 18010KT 29/15 A3012 RMK A01 T02920151  RH  042%=      5-min Rain = 0
KEA1 092244Z 19008KT 29/15 A3012 RMK A01 T02920151  RH  042%=      5-min Rain = 0
KEA1 092245Z 20005KT 29/15 A3012 RMK A01 T02920151  RH  042%=      5-min Rain = 0
KEA1 092246Z 21005KT 29/15 A3012 RMK A01 T02920151  RH  042%=      5-min Rain = 0
KEA1 092247Z 21007KT 29/15 A3012 RMK A01 T02930153  RH  043%=      5-min Rain = 0
KEA1 092248Z 19007KT 29/15 A3012 RMK A01 T02940152  RH  042%=      5-min Rain = 0
KEA1 092249Z 19004KT 30/15 A3012 RMK A01 T02950152  RH  042%=      5-min Rain = 0
KEA1 092250Z 17005KT 30/16 A3012 RMK A01 T02970155  RH  042%=      5-min Rain = 0
KEA1 092251Z 18003KT 30/15 A3012 RMK A01 T03010154  RH  041%=      5-min Rain = 0
KEA1 092252Z 17006KT 30/15 A3012 RMK A01 T03020153  RH  040%=      5-min Rain = 0
KEA1 092253Z 17008KT 30/15 A3012 RMK A01 T03030152  RH  040%=      5-min Rain = 0
KEA1 092254Z 18007KT 30/15 A3012 RMK A01 T03030152  RH  040%=      5-min Rain = 0
KEA1 092255Z 17005KT 30/15 A3012 RMK A01 T03020150  RH  040%=      5-min Rain = 0
KEA1 092256Z 19005KT 30/15 A3012 RMK A01 T03010151  RH  040%=      5-min Rain = 0
KEA1 092257Z 20004KT 30/15 A3012 RMK A01 T03000149  RH  040%=      5-min Rain = 0
KEA1 092258Z 21003KT 30/15 A3012 RMK A01 T02980148  RH  040%=      5-min Rain = 0
KEA1 092259Z 21004KT 30/15 A3012 RMK A01 T02980149  RH  040%=      5-min Rain = 0
KEA1 092300Z 21006KT 30/15 A3012 RMK A01 T02980147  RH  040%=      5-min Rain = 0
KEA1 092301Z 19008KT 30/15 A3012 RMK A01 T02960148  RH  041%=      5-min Rain = 0
KEA1 092302Z 19007KT 30/15 A3012 RMK A01 T02960148  RH  040%=      5-min Rain = 0
KEA1 092303Z 20003KT 29/15 A3012 RMK A01 T02940147  RH  041%=      5-min Rain = 0
KEA1 092304Z 21004KT 29/15 A3012 RMK A01 T02940150  RH  042%=      5-min Rain = 0
KEA1 092305Z 21005KT 29/15 A3012 RMK A01 T02940148  RH  041%=      5-min Rain = 0
KEA1 092306Z 19007KT 30/15 A3012 RMK A01 T02950148  RH  041%=      5-min Rain = 0
KEA1 092307Z 20006KT 30/15 A3012 RMK A01 T02970149  RH  041%=      5-min Rain = 0
KEA1 092308Z 20005KT 30/15 A3012 RMK A01 T02980146  RH  040%=      5-min Rain = 0
KEA1 092309Z 20004KT 30/15 A3012 RMK A01 T02970145  RH  040%=      5-min Rain = 0
KEA1 092310Z 21006KT 30/15 A3012 RMK A01 T02950148  RH  041%=      5-min Rain = 0
KEA1 092311Z 20006KT 30/15 A3012 RMK A01 T02950148  RH  041%=      5-min Rain = 0
KEA1 092312Z 20005KT 30/15 A3012 RMK A01 T02950147  RH  041%=      5-min Rain = 0
KEA1 092313Z 20004KT 29/15 A3012 RMK A01 T02930147  RH  041%=      5-min Rain = 0
KEA1 092314Z 19005KT 29/15 A3012 RMK A01 T02930148  RH  041%=      5-min Rain = 0
KEA1 092315Z 21004KT 29/15 A3012 RMK A01 T02930147  RH  041%=      5-min Rain = 0
KEA1 092316Z 20006KT 29/15 A3012 RMK A01 T02920146  RH  041%=      5-min Rain = 0
KEA1 092317Z 21006KT 29/15 A3012 RMK A01 T02910146  RH  041%=      5-min Rain = 0
KEA1 092318Z 21004KT 29/15 A3012 RMK A01 T02900147  RH  042%=      5-min Rain = 0
KEA1 092319Z 20006KT 29/15 A3012 RMK A01 T02900148  RH  042%=      5-min Rain = 0
KEA1 092320Z 20008KT 29/15 A3012 RMK A01 T02910146  RH  041%=      5-min Rain = 0
KEA1 092321Z 19007KT 29/15 A3012 RMK A01 T02910147  RH  041%=      5-min Rain = 0
KEA1 092322Z 19007KT 29/15 A3012 RMK A01 T02910146  RH  041%=      5-min Rain = 0
KEA1 092323Z 20005KT 29/15 A3012 RMK A01 T02910145  RH  041%=      5-min Rain = 0
KEA1 092324Z 21005KT 29/15 A3012 RMK A01 T02920147  RH  041%=      5-min Rain = 0
KEA1 092325Z 20004KT 29/15 A3012 RMK A01 T02940147  RH  041%=      5-min Rain = 0
KEA1 092326Z 21007KT 30/15 A3012 RMK A01 T02960148  RH  041%=      5-min Rain = 0
KEA1 092327Z 20004KT 30/15 A3012 RMK A01 T02970147  RH  040%=      5-min Rain = 0
KEA1 092328Z 18006KT 30/15 A3012 RMK A01 T02970148  RH  040%=      5-min Rain = 0
KEA1 092329Z 19008KT 30/15 A3012 RMK A01 T02970150  RH  041%=      5-min Rain = 0
KEA1 092330Z 20009KT 30/15 A3012 RMK A01 T02990148  RH  040%=      5-min Rain = 0
KEA1 092331Z 20007KT 30/15 A3012 RMK A01 T02980148  RH  040%=      5-min Rain = 0
KEA1 092332Z 20009KT 30/15 A3012 RMK A01 T02980147  RH  040%=      5-min Rain = 0
KEA1 092333Z 20008KT 30/15 A3012 RMK A01 T02970147  RH  040%=      5-min Rain = 0
KEA1 092334Z 20005KT 30/15 A3012 RMK A01 T02970146  RH  040%=      5-min Rain = 0
KEA1 092335Z 20008KT 30/15 A3012 RMK A01 T02960148  RH  040%=      5-min Rain = 0
KEA1 092336Z 21007KT 30/15 A3012 RMK A01 T02960145  RH  040%=      5-min Rain = 0
KEA1 092337Z 20006KT 30/15 A3012 RMK A01 T02960146  RH  040%=      5-min Rain = 0
KEA1 092338Z 19006KT 30/15 A3012 RMK A01 T02960147  RH  040%=      5-min Rain = 0
KEA1 092339Z 20006KT 30/15 A3012 RMK A01 T02970145  RH  039%=      5-min Rain = 0
KEA1 092340Z 21008KT 30/15 A3012 RMK A01 T02970145  RH  039%=      5-min Rain = 0
KEA1 092341Z 20005KT 30/15 A3012 RMK A01 T02960145  RH  040%=      5-min Rain = 0
KEA1 092342Z 19007KT 30/15 A3012 RMK A01 T02960147  RH  040%=      5-min Rain = 0
KEA1 092343Z 20010KT 30/14 A3012 RMK A01 T02960144  RH  040%=      5-min Rain = 0
KEA1 092344Z 20008KT 30/14 A3012 RMK A01 T02950143  RH  040%=      5-min Rain = 0
KEA1 092345Z 20007KT 29/14 A3012 RMK A01 T02920143  RH  040%=      5-min Rain = 0
KEA1 092346Z 22005KT 29/14 A3012 RMK A01 T02900142  RH  040%=      5-min Rain = 0
KEA1 092347Z 20006KT 29/14 A3012 RMK A01 T02890144  RH  041%=      5-min Rain = 0
KEA1 092348Z 20005KT 29/14 A3012 RMK A01 T02880143  RH  041%=      5-min Rain = 0
KEA1 092349Z 20006KT 29/14 A3012 RMK A01 T02880144  RH  041%=      5-min Rain = 0
KEA1 092350Z 20007KT 29/14 A3012 RMK A01 T02880143  RH  041%=      5-min Rain = 0
KEA1 092351Z 19007KT 29/14 A3012 RMK A01 T02880143  RH  041%=      5-min Rain = 0
KEA1 092352Z 18006KT 29/14 A3012 RMK A01 T02880143  RH  041%=      5-min Rain = 0
KEA1 092353Z 17004KT 29/14 A3011 RMK A01 T02880144  RH  041%=      5-min Rain = 0
KEA1 092354Z 19005KT 29/15 A3011 RMK A01 T02880145  RH  041%=      5-min Rain = 0
KEA1 092355Z 20006KT 29/14 A3011 RMK A01 T02880144  RH  041%=      5-min Rain = 0
KEA1 092356Z 19007KT 29/14 A3011 RMK A01 T02890142  RH  041%=      5-min Rain = 0
KEA1 092357Z 20008KT 29/14 A3011 RMK A01 T02880143  RH  041%=      5-min Rain = 0
KEA1 092358Z 19007KT 29/14 A3011 RMK A01 T02880144  RH  041%=      5-min Rain = 0
KEA1 092359Z 19006KT 29/14 A3011 RMK A01 T02880143  RH  041%=      5-min Rain = 0
KEA1 100000Z 18006KT 29/14 A3011 RMK A01 T02870143  RH  041%=      5-min Rain = 0
KEA1 100001Z 19007KT 29/14 A3011 RMK A01 T02870143  RH  041%=      5-min Rain = 0
KEA1 100002Z 19006KT 29/14 A3011 RMK A01 T02870143  RH  041%=      5-min Rain = 0
KEA1 100003Z 19006KT 29/14 A3011 RMK A01 T02870143  RH  041%=      5-min Rain = 0
KEA1 100004Z 20007KT 29/14 A3011 RMK A01 T02870144  RH  041%=      5-min Rain = 0
KEA1 100005Z 19006KT 29/14 A3011 RMK A01 T02870142  RH  041%=      5-min Rain = 0
KEA1 100006Z 19006KT 29/14 A3011 RMK A01 T02870144  RH  042%=      5-min Rain = 0
KEA1 100007Z 20006KT 29/14 A3011 RMK A01 T02870143  RH  041%=      5-min Rain = 0
KEA1 100008Z 20005KT 29/14 A3011 RMK A01 T02860144  RH  042%=      5-min Rain = 0
KEA1 100009Z 20007KT 29/15 A3011 RMK A01 T02860145  RH  042%=      5-min Rain = 0
KEA1 100010Z 20007KT 29/14 A3011 RMK A01 T02870144  RH  042%=      5-min Rain = 0
KEA1 100011Z 20006KT 29/14 A3011 RMK A01 T02860142  RH  041%=      5-min Rain = 0
KEA1 100012Z 20005KT 29/14 A3011 RMK A01 T02860141  RH  041%=      5-min Rain = 0
KEA1 100013Z 20007KT 29/14 A3011 RMK A01 T02850141  RH  041%=      5-min Rain = 0
KEA1 100014Z 20006KT 29/14 A3011 RMK A01 T02850140  RH  041%=      5-min Rain = 0
KEA1 100015Z 20006KT 29/14 A3011 RMK A01 T02850140  RH  041%=      5-min Rain = 0
KEA1 100016Z 19006KT 29/14 A3011 RMK A01 T02850139  RH  041%=      5-min Rain = 0
KEA1 100017Z 20006KT 29/14 A3011 RMK A01 T02850140  RH  041%=      5-min Rain = 0
KEA1 100018Z 19006KT 29/14 A3011 RMK A01 T02850140  RH  041%=      5-min Rain = 0
KEA1 100019Z 19007KT 29/14 A3011 RMK A01 T02850142  RH  041%=      5-min Rain = 0
KEA1 100020Z 19007KT 29/14 A3011 RMK A01 T02850142  RH  042%=      5-min Rain = 0
KEA1 100021Z 19008KT 28/14 A3011 RMK A01 T02840142  RH  042%=      5-min Rain = 0
KEA1 100022Z 19007KT 28/14 A3011 RMK A01 T02840140  RH  041%=      5-min Rain = 0
KEA1 100023Z 19007KT 28/14 A3011 RMK A01 T02840141  RH  041%=      5-min Rain = 0
KEA1 100024Z 19006KT 28/14 A3011 RMK A01 T02840141  RH  042%=      5-min Rain = 0
KEA1 100025Z 19006KT 28/14 A3011 RMK A01 T02840141  RH  042%=      5-min Rain = 0
KEA1 100026Z 19007KT 29/14 A3011 RMK A01 T02850141  RH  041%=      5-min Rain = 0
KEA1 100027Z 19006KT 29/14 A3011 RMK A01 T02850141  RH  041%=      5-min Rain = 0
KEA1 100028Z 19005KT 29/14 A3011 RMK A01 T02850142  RH  041%=      5-min Rain = 0
KEA1 100029Z 19005KT 29/14 A3011 RMK A01 T02860142  RH  041%=      5-min Rain = 0
KEA1 100030Z 19006KT 29/14 A3011 RMK A01 T02860141  RH  041%=      5-min Rain = 0
KEA1 100031Z 19006KT 29/14 A3011 RMK A01 T02860141  RH  041%=      5-min Rain = 0
KEA1 100032Z 19006KT 29/14 A3011 RMK A01 T02860141  RH  041%=      5-min Rain = 0
KEA1 100033Z 19005KT 29/14 A3011 RMK A01 T02860141  RH  041%=      5-min Rain = 0
KEA1 100034Z 19006KT 29/14 A3011 RMK A01 T02850142  RH  041%=      5-min Rain = 0
KEA1 100035Z 19006KT 29/14 A3011 RMK A01 T02850141  RH  041%=      5-min Rain = 0
KEA1 100036Z 20007KT 29/14 A3011 RMK A01 T02850141  RH  041%=      5-min Rain = 0
KEA1 100037Z 19006KT 28/14 A3011 RMK A01 T02840139  RH  041%=      5-min Rain = 0
KEA1 100038Z 19007KT 28/14 A3011 RMK A01 T02840138  RH  041%=      5-min Rain = 0
KEA1 100039Z 19007KT 28/14 A3011 RMK A01 T02840139  RH  041%=      5-min Rain = 0
KEA1 100040Z 19007KT 28/14 A3011 RMK A01 T02830139  RH  041%=      5-min Rain = 0
KEA1 100041Z 19008KT 28/14 A3011 RMK A01 T02830140  RH  042%=      5-min Rain = 0
KEA1 100042Z 19008KT 28/14 A3011 RMK A01 T02830141  RH  042%=      5-min Rain = 0
KEA1 100043Z 20007KT 28/14 A3011 RMK A01 T02820141  RH  042%=      5-min Rain = 0
KEA1 100044Z 19006KT 28/14 A3011 RMK A01 T02820141  RH  042%=      5-min Rain = 0
KEA1 100045Z 19007KT 28/14 A3011 RMK A01 T02820140  RH  042%=      5-min Rain = 0
KEA1 100046Z 19007KT 28/14 A3011 RMK A01 T02820139  RH  042%=      5-min Rain = 0
KEA1 100047Z 19007KT 28/14 A3011 RMK A01 T02820141  RH  042%=      5-min Rain = 0
KEA1 100048Z 19007KT 28/14 A3011 RMK A01 T02810140  RH  042%=      5-min Rain = 0
KEA1 100049Z 19006KT 28/14 A3011 RMK A01 T02820140  RH  042%=      5-min Rain = 0
KEA1 100050Z 19006KT 28/14 A3011 RMK A01 T02810139  RH  042%=      5-min Rain = 0
KEA1 100051Z 20005KT 28/14 A3011 RMK A01 T02810140  RH  042%=      5-min Rain = 0
KEA1 100052Z 20006KT 28/14 A3011 RMK A01 T02800140  RH  042%=      5-min Rain = 0
KEA1 100053Z 20006KT 28/14 A3011 RMK A01 T02800140  RH  042%=      5-min Rain = 0
KEA1 100054Z 20006KT 28/14 A3011 RMK A01 T02810138  RH  041%=      5-min Rain = 0
KEA1 100055Z 20006KT 28/14 A3011 RMK A01 T02820137  RH  041%=      5-min Rain = 0
KEA1 100056Z 20007KT 28/14 A3011 RMK A01 T02830138  RH  041%=      5-min Rain = 0
KEA1 100057Z 20007KT 28/14 A3011 RMK A01 T02830138  RH  041%=      5-min Rain = 0
KEA1 100058Z 19007KT 28/14 A3011 RMK A01 T02830139  RH  041%=      5-min Rain = 0
KEA1 100059Z 19006KT 28/14 A3011 RMK A01 T02830139  RH  041%=      5-min Rain = 0
KEA1 100100Z 19007KT 28/14 A3011 RMK A01 T02830139  RH  041%=      5-min Rain = 0
KEA1 100101Z 19007KT 28/14 A3011 RMK A01 T02830139  RH  041%=      5-min Rain = 0
KEA1 100102Z 19007KT 28/14 A3011 RMK A01 T02830140  RH  042%=      5-min Rain = 0
KEA1 100103Z 19006KT 28/14 A3012 RMK A01 T02820140  RH  042%=      5-min Rain = 0
KEA1 100104Z 19007KT 28/14 A3012 RMK A01 T02820140  RH  042%=      5-min Rain = 0
KEA1 100105Z 19007KT 28/14 A3012 RMK A01 T02810140  RH  042%=      5-min Rain = 0
KEA1 100106Z 19006KT 28/14 A3012 RMK A01 T02810140  RH  042%=      5-min Rain = 0
KEA1 100107Z 19007KT 28/14 A3012 RMK A01 T02800142  RH  043%=      5-min Rain = 0
KEA1 100108Z 19007KT 28/14 A3012 RMK A01 T02790141  RH  043%=      5-min Rain = 0
KEA1 100109Z 19005KT 28/14 A3012 RMK A01 T02780142  RH  043%=      5-min Rain = 0
KEA1 100110Z 19006KT 28/14 A3012 RMK A01 T02780143  RH  044%=      5-min Rain = 0
KEA1 100111Z 19006KT 28/14 A3012 RMK A01 T02760143  RH  044%=      5-min Rain = 0
KEA1 100112Z 18006KT 28/14 A3012 RMK A01 T02750143  RH  044%=      5-min Rain = 0
KEA1 100113Z 18006KT 28/14 A3012 RMK A01 T02750144  RH  045%=      5-min Rain = 0
KEA1 100114Z 18006KT 27/15 A3012 RMK A01 T02740145  RH  045%=      5-min Rain = 0
KEA1 100115Z 18006KT 27/15 A3012 RMK A01 T02730145  RH  045%=      5-min Rain = 0
KEA1 100116Z 18005KT 27/15 A3012 RMK A01 T02720145  RH  046%=      5-min Rain = 0
KEA1 100117Z 18005KT 27/15 A3012 RMK A01 T02710146  RH  046%=      5-min Rain = 0
KEA1 100118Z 18005KT 27/15 A3012 RMK A01 T02700146  RH  046%=      5-min Rain = 0
KEA1 100119Z 18005KT 27/15 A3012 RMK A01 T02700146  RH  047%=      5-min Rain = 0
KEA1 100120Z 18005KT 27/15 A3012 RMK A01 T02690147  RH  047%=      5-min Rain = 0
KEA1 100121Z 17005KT 27/15 A3012 RMK A01 T02680147  RH  047%=      5-min Rain = 0
KEA1 100122Z 17005KT 27/15 A3012 RMK A01 T02670147  RH  048%=      5-min Rain = 0
KEA1 100123Z 17005KT 27/15 A3012 RMK A01 T02660147  RH  048%=      5-min Rain = 0
KEA1 100124Z 17005KT 26/15 A3012 RMK A01 T02640147  RH  049%=      5-min Rain = 0
KEA1 100125Z 16006KT 26/15 A3013 RMK A01 T02630147  RH  049%=      5-min Rain = 0
KEA1 100126Z 16006KT 26/15 A3013 RMK A01 T02620147  RH  049%=      5-min Rain = 0
KEA1 100127Z 16006KT 26/15 A3013 RMK A01 T02610147  RH  050%=      5-min Rain = 0
KEA1 100128Z 16006KT 26/15 A3013 RMK A01 T02600147  RH  050%=      5-min Rain = 0
KEA1 100129Z 16005KT 26/15 A3013 RMK A01 T02590148  RH  050%=      5-min Rain = 0
KEA1 100130Z 16005KT 26/15 A3013 RMK A01 T02580148  RH  051%=      5-min Rain = 0
KEA1 100131Z 17005KT 26/15 A3013 RMK A01 T02580148  RH  051%=      5-min Rain = 0
KEA1 100132Z 17005KT 26/15 A3013 RMK A01 T02570148  RH  051%=      5-min Rain = 0
KEA1 100133Z 17005KT 26/15 A3013 RMK A01 T02570148  RH  051%=      5-min Rain = 0
KEA1 100134Z 17005KT 26/15 A3013 RMK A01 T02570148  RH  051%=      5-min Rain = 0
KEA1 100135Z 17005KT 26/15 A3013 RMK A01 T02570148  RH  051%=      5-min Rain = 0
KEA1 100136Z 17005KT 26/15 A3013 RMK A01 T02570149  RH  051%=      5-min Rain = 0
KEA1 100137Z 17005KT 26/15 A3014 RMK A01 T02570149  RH  051%=      5-min Rain = 0
KEA1 100138Z 17005KT 26/15 A3014 RMK A01 T02570149  RH  051%=      5-min Rain = 0
KEA1 100139Z 17005KT 26/15 A3014 RMK A01 T02570150  RH  051%=      5-min Rain = 0
KEA1 100140Z 17005KT 26/15 A3014 RMK A01 T02570150  RH  052%=      5-min Rain = 0
KEA1 100141Z 17004KT 26/15 A3014 RMK A01 T02560150  RH  052%=      5-min Rain = 0
KEA1 100142Z 17004KT 26/15 A3014 RMK A01 T02560150  RH  052%=      5-min Rain = 0
KEA1 100143Z 17004KT 26/15 A3014 RMK A01 T02560151  RH  052%=      5-min Rain = 0
KEA1 100144Z 17003KT 26/15 A3014 RMK A01 T02560151  RH  052%=      5-min Rain = 0
KEA1 100145Z 17003KT 26/15 A3014 RMK A01 T02580152  RH  052%=      5-min Rain = 0
KEA1 100146Z 17003KT 26/15 A3014 RMK A01 T02590153  RH  052%=      5-min Rain = 0
KEA1 100147Z 17003KT 26/15 A3014 RMK A01 T02600153  RH  052%=      5-min Rain = 0
KEA1 100148Z 17003KT 26/15 A3014 RMK A01 T02610154  RH  051%=      5-min Rain = 0
KEA1 100149Z 17003KT 26/15 A3014 RMK A01 T02620154  RH  051%=      5-min Rain = 0
KEA1 100150Z 17002KT 26/15 A3014 RMK A01 T02630154  RH  051%=      5-min Rain = 0
KEA1 100151Z 17002KT 26/15 A3014 RMK A01 T02630154  RH  051%=      5-min Rain = 0
KEA1 100152Z 17002KT 26/15 A3014 RMK A01 T02630154  RH  051%=      5-min Rain = 0
KEA1 100153Z 17002KT 26/15 A3014 RMK A01 T02630154  RH  051%=      5-min Rain = 0
KEA1 100154Z 17002KT 26/15 A3015 RMK A01 T02620154  RH  051%=      5-min Rain = 0
KEA1 100155Z 17002KT 26/15 A3015 RMK A01 T02600153  RH  052%=      5-min Rain = 0
KEA1 100156Z 16002KT 26/15 A3015 RMK A01 T02590153  RH  052%=      5-min Rain = 0
KEA1 100157Z 16003KT 26/15 A3015 RMK A01 T02580152  RH  052%=      5-min Rain = 0
KEA1 100158Z 16003KT 26/15 A3015 RMK A01 T02570153  RH  052%=      5-min Rain = 0
KEA1 100159Z 16003KT 26/15 A3015 RMK A01 T02560152  RH  052%=      5-min Rain = 0
KEA1 100200Z 17002KT 25/15 A3015 RMK A01 T02540151  RH  053%=      5-min Rain = 0
KEA1 100201Z 17002KT 25/15 A3015 RMK A01 T02540151  RH  053%=      5-min Rain = 0
KEA1 100202Z 18002KT 25/15 A3015 RMK A01 T02530152  RH  053%=      5-min Rain = 0
KEA1 100203Z 18002KT 25/15 A3015 RMK A01 T02530152  RH  054%=      5-min Rain = 0
KEA1 100204Z 18002KT 25/15 A3015 RMK A01 T02520152  RH  054%=      5-min Rain = 0
KEA1 100205Z 19002KT 25/15 A3015 RMK A01 T02530153  RH  054%=      5-min Rain = 0
KEA1 100206Z 19002KT 25/15 A3015 RMK A01 T02520152  RH  054%=      5-min Rain = 0
KEA1 100207Z 19002KT 25/15 A3015 RMK A01 T02520152  RH  054%=      5-min Rain = 0
KEA1 100208Z 20002KT 25/15 A3015 RMK A01 T02520152  RH  054%=      5-min Rain = 0
KEA1 100209Z 20002KT 25/15 A3015 RMK A01 T02530152  RH  054%=      5-min Rain = 0
KEA1 100210Z 20003KT 25/15 A3015 RMK A01 T02530152  RH  053%=      5-min Rain = 0
KEA1 100211Z 20003KT 25/15 A3015 RMK A01 T02540152  RH  053%=      5-min Rain = 0
KEA1 100212Z 21002KT 25/15 A3015 RMK A01 T02540152  RH  053%=      5-min Rain = 0
KEA1 100213Z 24002KT 25/15 A3015 RMK A01 T02540152  RH  053%=      5-min Rain = 0
KEA1 100214Z 25002KT 25/15 A3015 RMK A01 T02540152  RH  053%=      5-min Rain = 0
KEA1 100215Z 24002KT 25/15 A3015 RMK A01 T02540153  RH  053%=      5-min Rain = 0
KEA1 100216Z 24002KT 26/15 A3015 RMK A01 T02550153  RH  053%=      5-min Rain = 0
KEA1 100217Z 22002KT 26/15 A3015 RMK A01 T02570153  RH  052%=      5-min Rain = 0
KEA1 100218Z 21002KT 26/15 A3015 RMK A01 T02580152  RH  052%=      5-min Rain = 0
KEA1 100219Z 20003KT 26/15 A3015 RMK A01 T02580152  RH  052%=      5-min Rain = 0
KEA1 100220Z 20003KT 26/15 A3015 RMK A01 T02580152  RH  052%=      5-min Rain = 0
KEA1 100221Z 19003KT 26/15 A3015 RMK A01 T02580152  RH  052%=      5-min Rain = 0
KEA1 100222Z 19003KT 26/15 A3015 RMK A01 T02570152  RH  052%=      5-min Rain = 0
KEA1 100223Z 19004KT 26/15 A3015 RMK A01 T02550153  RH  053%=      5-min Rain = 0
KEA1 100224Z 19005KT 25/15 A3015 RMK A01 T02540153  RH  054%=      5-min Rain = 0
KEA1 100225Z 18006KT 25/15 A3015 RMK A01 T02510154  RH  055%=      5-min Rain = 0
KEA1 100226Z 18006KT 25/15 A3015 RMK A01 T02490153  RH  055%=      5-min Rain = 0
KEA1 100227Z 18006KT 25/15 A3015 RMK A01 T02460151  RH  056%=      5-min Rain = 0
KEA1 100228Z 18006KT 24/15 A3015 RMK A01 T02420150  RH  056%=      5-min Rain = 0
KEA1 100229Z 18006KT 24/15 A3015 RMK A01 T02380149  RH  057%=      5-min Rain = 0
KEA1 100230Z 18006KT 24/15 A3015 RMK A01 T02350149  RH  058%=      5-min Rain = 0
KEA1 100231Z 19007KT 23/15 A3015 RMK A01 T02330148  RH  059%=      5-min Rain = 0
KEA1 100232Z 19007KT 23/15 A3015 RMK A01 T02330148  RH  059%=      5-min Rain = 0
KEA1 100233Z 19006KT 23/15 A3015 RMK A01 T02330148  RH  059%=      5-min Rain = 0
KEA1 100234Z 19005KT 23/15 A3015 RMK A01 T02340148  RH  059%=      5-min Rain = 0
KEA1 100235Z 19005KT 24/15 A3016 RMK A01 T02350148  RH  058%=      5-min Rain = 0
KEA1 100236Z 19004KT 24/15 A3016 RMK A01 T02370149  RH  058%=      5-min Rain = 0
KEA1 100237Z 19004KT 24/15 A3016 RMK A01 T02390150  RH  057%=      5-min Rain = 0
KEA1 100238Z 19004KT 24/15 A3016 RMK A01 T02410150  RH  057%=      5-min Rain = 0
KEA1 100239Z 19005KT 24/15 A3016 RMK A01 T02420150  RH  057%=      5-min Rain = 0
KEA1 100240Z 19005KT 24/15 A3016 RMK A01 T02420151  RH  057%=      5-min Rain = 0
KEA1 100241Z 18005KT 24/15 A3016 RMK A01 T02410151  RH  057%=      5-min Rain = 0
KEA1 100242Z 18006KT 24/15 A3016 RMK A01 T02400151  RH  058%=      5-min Rain = 0
KEA1 100243Z 18006KT 24/15 A3016 RMK A01 T02380150  RH  058%=      5-min Rain = 0
KEA1 100244Z 18005KT 24/15 A3016 RMK A01 T02350151  RH  059%=      5-min Rain = 0
KEA1 100245Z 18005KT 23/15 A3016 RMK A01 T02320151  RH  060%=      5-min Rain = 0
KEA1 100246Z 18005KT 23/15 A3016 RMK A01 T02300152  RH  061%=      5-min Rain = 0
KEA1 100247Z 18005KT 23/15 A3016 RMK A01 T02290152  RH  062%=      5-min Rain = 0
KEA1 100248Z 18006KT 23/15 A3016 RMK A01 T02280153  RH  063%=      5-min Rain = 0
KEA1 100249Z 18006KT 23/15 A3016 RMK A01 T02270153  RH  063%=      5-min Rain = 0
KEA1 100250Z 17006KT 23/15 A3016 RMK A01 T02260153  RH  063%=      5-min Rain = 0
KEA1 100251Z 17006KT 23/15 A3016 RMK A01 T02260154  RH  064%=      5-min Rain = 0
KEA1 100252Z 17006KT 23/16 A3016 RMK A01 T02260156  RH  064%=      5-min Rain = 0
KEA1 100253Z 16005KT 23/16 A3016 RMK A01 T02260155  RH  064%=      5-min Rain = 0
KEA1 100254Z 16005KT 23/16 A3016 RMK A01 T02250155  RH  064%=      5-min Rain = 0
KEA1 100255Z 16004KT 22/16 A3016 RMK A01 T02240155  RH  065%=      5-min Rain = 0
KEA1 100256Z 16004KT 22/15 A3017 RMK A01 T02240154  RH  065%=      5-min Rain = 0
KEA1 100257Z 16004KT 22/15 A3017 RMK A01 T02240153  RH  064%=      5-min Rain = 0
KEA1 100258Z 16005KT 23/15 A3017 RMK A01 T02250152  RH  063%=      5-min Rain = 0
KEA1 100259Z 16005KT 23/15 A3017 RMK A01 T02260151  RH  063%=      5-min Rain = 0
KEA1 100300Z 16005KT 23/15 A3017 RMK A01 T02280152  RH  062%=      5-min Rain = 0
KEA1 100301Z 16006KT 23/15 A3017 RMK A01 T02290152  RH  062%=      5-min Rain = 0
KEA1 100302Z 16006KT 23/15 A3017 RMK A01 T02290152  RH  062%=      5-min Rain = 0
KEA1 100303Z 16006KT 23/15 A3017 RMK A01 T02280153  RH  062%=      5-min Rain = 0
KEA1 100304Z 16007KT 23/15 A3017 RMK A01 T02270152  RH  063%=      5-min Rain = 0
KEA1 100305Z 16007KT 23/15 A3017 RMK A01 T02250152  RH  063%=      5-min Rain = 0
KEA1 100306Z 16006KT 22/15 A3017 RMK A01 T02230151  RH  064%=      5-min Rain = 0
KEA1 100307Z 16007KT 22/15 A3017 RMK A01 T02230152  RH  064%=      5-min Rain = 0
KEA1 100308Z 16007KT 22/15 A3017 RMK A01 T02230153  RH  064%=      5-min Rain = 0
KEA1 100309Z 16007KT 22/15 A3017 RMK A01 T02220153  RH  065%=      5-min Rain = 0
KEA1 100310Z 16007KT 22/15 A3017 RMK A01 T02220153  RH  065%=      5-min Rain = 0
KEA1 100311Z 16007KT 22/15 A3017 RMK A01 T02220153  RH  065%=      5-min Rain = 0
KEA1 100312Z 17007KT 22/15 A3017 RMK A01 T02210153  RH  065%=      5-min Rain = 0
KEA1 100313Z 17007KT 22/15 A3017 RMK A01 T02210153  RH  065%=      5-min Rain = 0
KEA1 100314Z 17008KT 22/15 A3017 RMK A01 T02210153  RH  065%=      5-min Rain = 0
KEA1 100315Z 17008KT 22/15 A3017 RMK A01 T02210153  RH  065%=      5-min Rain = 0
KEA1 100316Z 17008KT 22/15 A3017 RMK A01 T02210153  RH  065%=      5-min Rain = 0
KEA1 100317Z 16008KT 22/15 A3017 RMK A01 T02200153  RH  066%=      5-min Rain = 0
KEA1 100318Z 16009KT 22/15 A3017 RMK A01 T02190153  RH  066%=      5-min Rain = 0
KEA1 100319Z 16009KT 22/15 A3017 RMK A01 T02190153  RH  066%=      5-min Rain = 0
KEA1 100320Z 16009KT 22/15 A3017 RMK A01 T02180154  RH  067%=      5-min Rain = 0
KEA1 100321Z 16010KT 22/15 A3017 RMK A01 T02180154  RH  067%=      5-min Rain = 0
KEA1 100322Z 16010KT 22/16 A3017 RMK A01 T02180155  RH  067%=      5-min Rain = 0
KEA1 100323Z 16009KT 22/15 A3017 RMK A01 T02180154  RH  067%=      5-min Rain = 0
KEA1 100324Z 16009KT 22/16 A3017 RMK A01 T02190155  RH  067%=      5-min Rain = 0
KEA1 100325Z 17009KT 22/16 A3017 RMK A01 T02190155  RH  067%=      5-min Rain = 0
KEA1 100326Z 17008KT 22/16 A3017 RMK A01 T02190155  RH  067%=      5-min Rain = 0
KEA1 100327Z 17008KT 22/16 A3017 RMK A01 T02200156  RH  067%=      5-min Rain = 0
KEA1 100328Z 17008KT 22/16 A3017 RMK A01 T02200156  RH  067%=      5-min Rain = 0
KEA1 100329Z 17008KT 22/16 A3017 RMK A01 T02210157  RH  067%=      5-min Rain = 0
KEA1 100330Z 17008KT 22/16 A3017 RMK A01 T02210157  RH  067%=      5-min Rain = 0
KEA1 100331Z 17008KT 22/16 A3017 RMK A01 T02210157  RH  067%=      5-min Rain = 0
KEA1 100332Z 17008KT 22/16 A3017 RMK A01 T02210157  RH  067%=      5-min Rain = 0
KEA1 100333Z 17008KT 22/16 A3017 RMK A01 T02210157  RH  067%=      5-min Rain = 0
KEA1 100334Z 18007KT 22/16 A3017 RMK A01 T02210158  RH  067%=      5-min Rain = 0
KEA1 100335Z 17008KT 22/16 A3017 RMK A01 T02210158  RH  068%=      5-min Rain = 0
KEA1 100336Z 18008KT 22/16 A3017 RMK A01 T02210158  RH  068%=      5-min Rain = 0
KEA1 100337Z 17007KT 22/16 A3017 RMK A01 T02210158  RH  068%=      5-min Rain = 0
KEA1 100338Z 18007KT 22/16 A3017 RMK A01 T02210159  RH  068%=      5-min Rain = 0
KEA1 100339Z 17007KT 22/16 A3017 RMK A01 T02210159  RH  068%=      5-min Rain = 0
KEA1 100340Z 17007KT 22/16 A3018 RMK A01 T02210159  RH  068%=      5-min Rain = 0
KEA1 100341Z 17007KT 22/16 A3018 RMK A01 T02210159  RH  068%=      5-min Rain = 0
KEA1 100342Z 17007KT 22/16 A3018 RMK A01 T02210160  RH  068%=      5-min Rain = 0
KEA1 100343Z 17007KT 22/16 A3018 RMK A01 T02210160  RH  068%=      5-min Rain = 0
KEA1 100344Z 17007KT 22/16 A3018 RMK A01 T02210160  RH  069%=      5-min Rain = 0
KEA1 100345Z 18007KT 22/16 A3018 RMK A01 T02210161  RH  069%=      5-min Rain = 0
KEA1 100346Z 18007KT 22/16 A3018 RMK A01 T02220161  RH  069%=      5-min Rain = 0
KEA1 100347Z 18007KT 22/16 A3018 RMK A01 T02220161  RH  069%=      5-min Rain = 0
KEA1 100348Z 17007KT 22/16 A3018 RMK A01 T02220162  RH  069%=      5-min Rain = 0
KEA1 100349Z 17007KT 22/16 A3018 RMK A01 T02230162  RH  069%=      5-min Rain = 0
KEA1 100350Z 17007KT 22/16 A3018 RMK A01 T02230163  RH  069%=      5-min Rain = 0
KEA1 100351Z 16006KT 22/16 A3018 RMK A01 T02230163  RH  069%=      5-min Rain = 0
KEA1 100352Z 16006KT 22/16 A3018 RMK A01 T02230163  RH  069%=      5-min Rain = 0
KEA1 100353Z 15006KT 22/16 A3018 RMK A01 T02240163  RH  068%=      5-min Rain = 0
KEA1 100354Z 15005KT 22/16 A3018 RMK A01 T02230163  RH  068%=      5-min Rain = 0
KEA1 100355Z 14005KT 22/16 A3018 RMK A01 T02240163  RH  069%=      5-min Rain = 0
KEA1 100356Z 14005KT 22/16 A3018 RMK A01 T02240163  RH  069%=      5-min Rain = 0
KEA1 100357Z 13005KT 22/16 A3018 RMK A01 T02230163  RH  069%=      5-min Rain = 0
KEA1 100358Z 13005KT 22/16 A3018 RMK A01 T02230163  RH  069%=      5-min Rain = 0
KEA1 100359Z 12004KT 22/16 A3018 RMK A01 T02230163  RH  069%=      5-min Rain = 0
KEA1 100400Z 12004KT 22/16 A3018 RMK A01 T02220163  RH  069%=      5-min Rain = 0
KEA1 100401Z 12005KT 22/16 A3018 RMK A01 T02210163  RH  069%=      5-min Rain = 0
KEA1 100402Z 12005KT 22/16 A3018 RMK A01 T02220163  RH  069%=      5-min Rain = 0
KEA1 100403Z 13005KT 22/16 A3018 RMK A01 T02210163  RH  069%=      5-min Rain = 0
KEA1 100404Z 14005KT 22/16 A3018 RMK A01 T02230163  RH  069%=      5-min Rain = 0
KEA1 100405Z 14006KT 22/16 A3018 RMK A01 T02230163  RH  069%=      5-min Rain = 0
KEA1 100406Z 14006KT 22/16 A3018 RMK A01 T02240163  RH  068%=      5-min Rain = 0
KEA1 100407Z 14006KT 23/16 A3018 RMK A01 T02250163  RH  068%=      5-min Rain = 0
KEA1 100408Z 14006KT 23/16 A3018 RMK A01 T02260164  RH  068%=      5-min Rain = 0
KEA1 100409Z 14006KT 23/16 A3019 RMK A01 T02260163  RH  068%=      5-min Rain = 0
KEA1 100410Z 14005KT 23/16 A3019 RMK A01 T02260164  RH  068%=      5-min Rain = 0
KEA1 100411Z 14006KT 23/16 A3019 RMK A01 T02260163  RH  068%=      5-min Rain = 0
KEA1 100412Z 13005KT 23/16 A3019 RMK A01 T02260164  RH  068%=      5-min Rain = 0
KEA1 100413Z 13005KT 23/16 A3019 RMK A01 T02260164  RH  068%=      5-min Rain = 0
KEA1 100414Z 13005KT 23/16 A3019 RMK A01 T02260164  RH  068%=      5-min Rain = 0
KEA1 100415Z 14005KT 23/16 A3019 RMK A01 T02250164  RH  068%=      5-min Rain = 0
KEA1 100416Z 14005KT 23/17 A3019 RMK A01 T02250165  RH  069%=      5-min Rain = 0
KEA1 100417Z 14005KT 22/17 A3019 RMK A01 T02240165  RH  069%=      5-min Rain = 0
KEA1 100418Z 14005KT 22/17 A3019 RMK A01 T02240165  RH  069%=      5-min Rain = 0
KEA1 100419Z 14005KT 22/17 A3019 RMK A01 T02240165  RH  069%=      5-min Rain = 0
KEA1 100420Z 14005KT 22/17 A3019 RMK A01 T02240165  RH  069%=      5-min Rain = 0
KEA1 100421Z 14005KT 22/17 A3019 RMK A01 T02240165  RH  069%=      5-min Rain = 0
KEA1 100422Z 14005KT 22/17 A3019 RMK A01 T02240165  RH  070%=      5-min Rain = 0
KEA1 100423Z 14005KT 22/17 A3019 RMK A01 T02230165  RH  070%=      5-min Rain = 0
KEA1 100424Z 14005KT 22/17 A3019 RMK A01 T02230165  RH  070%=      5-min Rain = 0
KEA1 100425Z 14005KT 22/17 A3019 RMK A01 T02230165  RH  070%=      5-min Rain = 0
KEA1 100426Z 14004KT 22/17 A3019 RMK A01 T02230165  RH  070%=      5-min Rain = 0
KEA1 100427Z 14004KT 22/17 A3019 RMK A01 T02230165  RH  070%=      5-min Rain = 0
KEA1 100428Z 13004KT 22/17 A3019 RMK A01 T02230165  RH  070%=      5-min Rain = 0
KEA1 100429Z 13004KT 22/17 A3019 RMK A01 T02220165  RH  070%=      5-min Rain = 0
KEA1 100430Z 13003KT 22/17 A3019 RMK A01 T02220165  RH  070%=      5-min Rain = 0
KEA1 100431Z 13003KT 22/17 A3019 RMK A01 T02210165  RH  070%=      5-min Rain = 0
KEA1 100432Z 12003KT 22/17 A3019 RMK A01 T02210165  RH  070%=      5-min Rain = 0
KEA1 100433Z 10003KT 22/16 A3019 RMK A01 T02200164  RH  071%=      5-min Rain = 0
KEA1 100434Z 08007KT 22/16 A302 RMK A01 T02180164  RH  071%=      5-min Rain = 0
KEA1 100435Z 07011KT 22/16 A302 RMK A01 T02150164  RH  073%=      5-min Rain = 0
KEA1 100436Z 08010KT 21/17 A302 RMK A01 T02140165  RH  074%=      5-min Rain = 0
KEA1 100437Z 08008KT 22/17 A302 RMK A01 T02150166  RH  074%=      5-min Rain = 0
KEA1 100438Z 07004KT 22/17 A302 RMK A01 T02160165  RH  073%=      5-min Rain = 0
KEA1 100439Z 07005KT 22/16 A302 RMK A01 T02180164  RH  072%=      5-min Rain = 0
KEA1 100440Z 10006KT 22/16 A302 RMK A01 T02190164  RH  071%=      5-min Rain = 0
KEA1 100441Z 11006KT 22/16 A302 RMK A01 T02200160  RH  068%=      5-min Rain = 0
KEA1 100442Z 10005KT 22/16 A302 RMK A01 T02240160  RH  067%=      5-min Rain = 0
KEA1 100443Z 09003KT 23/16 A302 RMK A01 T02260159  RH  066%=      5-min Rain = 0
KEA1 100444Z 09003KT 23/16 A302 RMK A01 T02280159  RH  065%=      5-min Rain = 0
KEA1 100445Z 10005KT 23/16 A302 RMK A01 T02280159  RH  065%=      5-min Rain = 0
KEA1 100446Z 12006KT 23/16 A302 RMK A01 T02290159  RH  065%=      5-min Rain = 0
KEA1 100447Z 12005KT 23/16 A302 RMK A01 T02280158  RH  065%=      5-min Rain = 0
KEA1 100448Z 11004KT 23/16 A302 RMK A01 T02280158  RH  064%=      5-min Rain = 0
KEA1 100449Z 12005KT 23/16 A302 RMK A01 T02280158  RH  064%=      5-min Rain = 0
KEA1 100450Z 13005KT 23/16 A302 RMK A01 T02290158  RH  064%=      5-min Rain = 0
KEA1 100451Z 14005KT 23/16 A302 RMK A01 T02290158  RH  064%=      5-min Rain = 0
KEA1 100452Z 15004KT 23/16 A302 RMK A01 T02300158  RH  064%=      5-min Rain = 0
KEA1 100453Z 15004KT 23/16 A302 RMK A01 T02300158  RH  064%=      5-min Rain = 0
KEA1 100454Z 15004KT 23/16 A302 RMK A01 T02290158  RH  064%=      5-min Rain = 0
KEA1 100455Z 15003KT 23/16 A302 RMK A01 T02290157  RH  064%=      5-min Rain = 0
KEA1 100456Z 16003KT 23/16 A302 RMK A01 T02290157  RH  064%=      5-min Rain = 0
KEA1 100457Z 16003KT 23/16 A302 RMK A01 T02290158  RH  064%=      5-min Rain = 0
KEA1 100458Z 16003KT 23/16 A302 RMK A01 T02280157  RH  064%=      5-min Rain = 0
KEA1 100459Z 16003KT 23/16 A302 RMK A01 T02270158  RH  065%=      5-min Rain = 0

Page generated in 0.0331 seconds.